<?xml version="1.0" encoding="UTF-8" standalone="no" ?>
<gpx xmlns="http://www.topografix.com/GPX/1/1" creator="CompeGPS" version="1.1" xmlns:xsi="http://www.w3.org/2001/XMLSchema-instance" xsi:schemaLocation="http://www.topografix.com/GPX/1/1 http://www.topografix.com/GPX/1/1/gpx.xsd">
  <metadata>
    <link href="http://www.compegps.com">
      <text>CompeGPS TEAM, SL</text>
    </link>
    <time>2021-12-16T09:09:43Z</time>
    <bounds maxlat="37.262590" maxlon="-3.261573" minlat="37.226729" minlon="-3.280955"/>
  </metadata>
  <trk>
    <name>Cortijo Narváez</name>
    <trkseg>
      <trkpt lat="37.260131" lon="-3.275555">
        <ele>1162.4</ele>
        <time>2021-12-12T08:34:41Z</time>
      </trkpt>
      <trkpt lat="37.260134" lon="-3.275616">
        <ele>1165.3</ele>
        <time>2021-12-12T08:37:00Z</time>
      </trkpt>
      <trkpt lat="37.260118" lon="-3.275834">
        <ele>1165.7</ele>
        <time>2021-12-12T08:37:37Z</time>
      </trkpt>
      <trkpt lat="37.260073" lon="-3.276063">
        <ele>1165.3</ele>
        <time>2021-12-12T08:38:02Z</time>
      </trkpt>
      <trkpt lat="37.260050" lon="-3.276299">
        <ele>1165.3</ele>
        <time>2021-12-12T08:38:22Z</time>
      </trkpt>
      <trkpt lat="37.260061" lon="-3.276540">
        <ele>1165.3</ele>
        <time>2021-12-12T08:38:44Z</time>
      </trkpt>
      <trkpt lat="37.260198" lon="-3.276684">
        <ele>1165.7</ele>
        <time>2021-12-12T08:39:04Z</time>
      </trkpt>
      <trkpt lat="37.260338" lon="-3.276852">
        <ele>1163.3</ele>
        <time>2021-12-12T08:39:28Z</time>
      </trkpt>
      <trkpt lat="37.260490" lon="-3.277001">
        <ele>1162.4</ele>
        <time>2021-12-12T08:39:47Z</time>
      </trkpt>
      <trkpt lat="37.260663" lon="-3.277121">
        <ele>1162.4</ele>
        <time>2021-12-12T08:40:06Z</time>
      </trkpt>
      <trkpt lat="37.260834" lon="-3.277256">
        <ele>1163.3</ele>
        <time>2021-12-12T08:40:24Z</time>
      </trkpt>
      <trkpt lat="37.261012" lon="-3.277348">
        <ele>1163.3</ele>
        <time>2021-12-12T08:40:41Z</time>
      </trkpt>
      <trkpt lat="37.261186" lon="-3.277449">
        <ele>1163.8</ele>
        <time>2021-12-12T08:40:57Z</time>
      </trkpt>
      <trkpt lat="37.261381" lon="-3.277491">
        <ele>1161.4</ele>
        <time>2021-12-12T08:41:13Z</time>
      </trkpt>
      <trkpt lat="37.261568" lon="-3.277558">
        <ele>1160.4</ele>
        <time>2021-12-12T08:41:31Z</time>
      </trkpt>
      <trkpt lat="37.261752" lon="-3.277603">
        <ele>1159.0</ele>
        <time>2021-12-12T08:41:49Z</time>
      </trkpt>
      <trkpt lat="37.261937" lon="-3.277644">
        <ele>1156.1</ele>
        <time>2021-12-12T08:42:10Z</time>
      </trkpt>
      <trkpt lat="37.262129" lon="-3.277688">
        <ele>1155.2</ele>
        <time>2021-12-12T08:42:26Z</time>
      </trkpt>
      <trkpt lat="37.262314" lon="-3.277723">
        <ele>1154.7</ele>
        <time>2021-12-12T08:42:41Z</time>
      </trkpt>
      <trkpt lat="37.262432" lon="-3.277811">
        <ele>1154.7</ele>
        <time>2021-12-12T08:43:46Z</time>
      </trkpt>
      <trkpt lat="37.262496" lon="-3.278030">
        <ele>1152.3</ele>
        <time>2021-12-12T08:44:01Z</time>
      </trkpt>
      <trkpt lat="37.262553" lon="-3.278235">
        <ele>1150.4</ele>
        <time>2021-12-12T08:44:28Z</time>
      </trkpt>
      <trkpt lat="37.262575" lon="-3.278470">
        <ele>1148.0</ele>
        <time>2021-12-12T08:44:42Z</time>
      </trkpt>
      <trkpt lat="37.262590" lon="-3.278705">
        <ele>1145.1</ele>
        <time>2021-12-12T08:44:57Z</time>
      </trkpt>
      <trkpt lat="37.262588" lon="-3.278936">
        <ele>1141.2</ele>
        <time>2021-12-12T08:45:12Z</time>
      </trkpt>
      <trkpt lat="37.262539" lon="-3.279181">
        <ele>1140.3</ele>
        <time>2021-12-12T08:45:37Z</time>
      </trkpt>
      <trkpt lat="37.262461" lon="-3.279362">
        <ele>1141.7</ele>
        <time>2021-12-12T08:46:02Z</time>
      </trkpt>
      <trkpt lat="37.262465" lon="-3.279601">
        <ele>1142.2</ele>
        <time>2021-12-12T08:46:18Z</time>
      </trkpt>
      <trkpt lat="37.262492" lon="-3.279825">
        <ele>1141.2</ele>
        <time>2021-12-12T08:46:33Z</time>
      </trkpt>
      <trkpt lat="37.262455" lon="-3.280053">
        <ele>1141.2</ele>
        <time>2021-12-12T08:46:50Z</time>
      </trkpt>
      <trkpt lat="37.262332" lon="-3.280226">
        <ele>1137.4</ele>
        <time>2021-12-12T08:47:07Z</time>
      </trkpt>
      <trkpt lat="37.262129" lon="-3.280300">
        <ele>1136.9</ele>
        <time>2021-12-12T08:47:28Z</time>
      </trkpt>
      <trkpt lat="37.261919" lon="-3.280431">
        <ele>1139.3</ele>
        <time>2021-12-12T08:48:03Z</time>
      </trkpt>
      <trkpt lat="37.261702" lon="-3.280459">
        <ele>1141.2</ele>
        <time>2021-12-12T08:48:33Z</time>
      </trkpt>
      <trkpt lat="37.261515" lon="-3.280470">
        <ele>1141.2</ele>
        <time>2021-12-12T08:48:57Z</time>
      </trkpt>
      <trkpt lat="37.261400" lon="-3.280313">
        <ele>1143.1</ele>
        <time>2021-12-12T08:49:29Z</time>
      </trkpt>
      <trkpt lat="37.261212" lon="-3.280382">
        <ele>1135.5</ele>
        <time>2021-12-12T08:50:18Z</time>
      </trkpt>
      <trkpt lat="37.261144" lon="-3.280534">
        <ele>1131.1</ele>
        <time>2021-12-12T08:51:00Z</time>
      </trkpt>
      <trkpt lat="37.260996" lon="-3.280700">
        <ele>1123.0</ele>
        <time>2021-12-12T08:51:44Z</time>
      </trkpt>
      <trkpt lat="37.260780" lon="-3.280955">
        <ele>1104.7</ele>
        <time>2021-12-12T08:53:26Z</time>
      </trkpt>
      <trkpt lat="37.260563" lon="-3.280947">
        <ele>1105.2</ele>
        <time>2021-12-12T08:54:20Z</time>
      </trkpt>
      <trkpt lat="37.260364" lon="-3.280820">
        <ele>1105.2</ele>
        <time>2021-12-12T08:54:38Z</time>
      </trkpt>
      <trkpt lat="37.260196" lon="-3.280771">
        <ele>1105.7</ele>
        <time>2021-12-12T08:54:57Z</time>
      </trkpt>
      <trkpt lat="37.260009" lon="-3.280651">
        <ele>1106.1</ele>
        <time>2021-12-12T08:55:15Z</time>
      </trkpt>
      <trkpt lat="37.259810" lon="-3.280530">
        <ele>1107.6</ele>
        <time>2021-12-12T08:55:34Z</time>
      </trkpt>
      <trkpt lat="37.259660" lon="-3.280360">
        <ele>1107.6</ele>
        <time>2021-12-12T08:55:54Z</time>
      </trkpt>
      <trkpt lat="37.259488" lon="-3.280179">
        <ele>1108.5</ele>
        <time>2021-12-12T08:56:14Z</time>
      </trkpt>
      <trkpt lat="37.259354" lon="-3.279998">
        <ele>1109.0</ele>
        <time>2021-12-12T08:56:32Z</time>
      </trkpt>
      <trkpt lat="37.259204" lon="-3.279835">
        <ele>1110.0</ele>
        <time>2021-12-12T08:56:51Z</time>
      </trkpt>
      <trkpt lat="37.258989" lon="-3.279816">
        <ele>1110.5</ele>
        <time>2021-12-12T08:57:18Z</time>
      </trkpt>
      <trkpt lat="37.258907" lon="-3.279647">
        <ele>1110.9</ele>
        <time>2021-12-12T08:58:29Z</time>
      </trkpt>
      <trkpt lat="37.258846" lon="-3.279365">
        <ele>1111.4</ele>
        <time>2021-12-12T09:00:52Z</time>
      </trkpt>
      <trkpt lat="37.258685" lon="-3.279297">
        <ele>1112.4</ele>
        <time>2021-12-12T09:01:14Z</time>
      </trkpt>
      <trkpt lat="37.258506" lon="-3.279191">
        <ele>1113.3</ele>
        <time>2021-12-12T09:01:36Z</time>
      </trkpt>
      <trkpt lat="37.258296" lon="-3.279040">
        <ele>1113.8</ele>
        <time>2021-12-12T09:02:02Z</time>
      </trkpt>
      <trkpt lat="37.258026" lon="-3.278876">
        <ele>1114.8</ele>
        <time>2021-12-12T09:02:29Z</time>
      </trkpt>
      <trkpt lat="37.257944" lon="-3.278858">
        <ele>1114.8</ele>
        <time>2021-12-12T09:03:57Z</time>
      </trkpt>
      <trkpt lat="37.257737" lon="-3.278739">
        <ele>1115.3</ele>
        <time>2021-12-12T09:04:20Z</time>
      </trkpt>
      <trkpt lat="37.257507" lon="-3.278687">
        <ele>1115.7</ele>
        <time>2021-12-12T09:04:44Z</time>
      </trkpt>
      <trkpt lat="37.257313" lon="-3.278609">
        <ele>1116.2</ele>
        <time>2021-12-12T09:05:07Z</time>
      </trkpt>
      <trkpt lat="37.257102" lon="-3.278500">
        <ele>1116.7</ele>
        <time>2021-12-12T09:05:33Z</time>
      </trkpt>
      <trkpt lat="37.256962" lon="-3.278342">
        <ele>1117.7</ele>
        <time>2021-12-12T09:05:55Z</time>
      </trkpt>
      <trkpt lat="37.256814" lon="-3.278197">
        <ele>1117.7</ele>
        <time>2021-12-12T09:06:15Z</time>
      </trkpt>
      <trkpt lat="37.256663" lon="-3.278065">
        <ele>1118.6</ele>
        <time>2021-12-12T09:06:34Z</time>
      </trkpt>
      <trkpt lat="37.256509" lon="-3.277881">
        <ele>1118.6</ele>
        <time>2021-12-12T09:06:54Z</time>
      </trkpt>
      <trkpt lat="37.256321" lon="-3.277836">
        <ele>1119.6</ele>
        <time>2021-12-12T09:07:12Z</time>
      </trkpt>
      <trkpt lat="37.256137" lon="-3.277756">
        <ele>1119.6</ele>
        <time>2021-12-12T09:07:30Z</time>
      </trkpt>
      <trkpt lat="37.255977" lon="-3.277625">
        <ele>1120.1</ele>
        <time>2021-12-12T09:07:49Z</time>
      </trkpt>
      <trkpt lat="37.255815" lon="-3.277490">
        <ele>1120.6</ele>
        <time>2021-12-12T09:08:11Z</time>
      </trkpt>
      <trkpt lat="37.255632" lon="-3.277385">
        <ele>1120.6</ele>
        <time>2021-12-12T09:08:29Z</time>
      </trkpt>
      <trkpt lat="37.255491" lon="-3.277204">
        <ele>1121.0</ele>
        <time>2021-12-12T09:08:45Z</time>
      </trkpt>
      <trkpt lat="37.255390" lon="-3.276983">
        <ele>1121.5</ele>
        <time>2021-12-12T09:09:01Z</time>
      </trkpt>
      <trkpt lat="37.255256" lon="-3.276726">
        <ele>1122.0</ele>
        <time>2021-12-12T09:09:18Z</time>
      </trkpt>
      <trkpt lat="37.255124" lon="-3.276536">
        <ele>1122.0</ele>
        <time>2021-12-12T09:09:35Z</time>
      </trkpt>
      <trkpt lat="37.255003" lon="-3.276311">
        <ele>1122.5</ele>
        <time>2021-12-12T09:09:51Z</time>
      </trkpt>
      <trkpt lat="37.254890" lon="-3.276118">
        <ele>1123.0</ele>
        <time>2021-12-12T09:10:07Z</time>
      </trkpt>
      <trkpt lat="37.254727" lon="-3.275971">
        <ele>1124.4</ele>
        <time>2021-12-12T09:10:22Z</time>
      </trkpt>
      <trkpt lat="37.254557" lon="-3.275866">
        <ele>1125.4</ele>
        <time>2021-12-12T09:10:37Z</time>
      </trkpt>
      <trkpt lat="37.254400" lon="-3.275740">
        <ele>1126.3</ele>
        <time>2021-12-12T09:10:52Z</time>
      </trkpt>
      <trkpt lat="37.254245" lon="-3.275619">
        <ele>1126.8</ele>
        <time>2021-12-12T09:11:17Z</time>
      </trkpt>
      <trkpt lat="37.254075" lon="-3.275487">
        <ele>1128.7</ele>
        <time>2021-12-12T09:11:35Z</time>
      </trkpt>
      <trkpt lat="37.253924" lon="-3.275308">
        <ele>1129.2</ele>
        <time>2021-12-12T09:11:54Z</time>
      </trkpt>
      <trkpt lat="37.253795" lon="-3.275125">
        <ele>1129.2</ele>
        <time>2021-12-12T09:12:12Z</time>
      </trkpt>
      <trkpt lat="37.253661" lon="-3.274948">
        <ele>1130.2</ele>
        <time>2021-12-12T09:12:31Z</time>
      </trkpt>
      <trkpt lat="37.253471" lon="-3.274992">
        <ele>1131.1</ele>
        <time>2021-12-12T09:12:51Z</time>
      </trkpt>
      <trkpt lat="37.253292" lon="-3.274904">
        <ele>1134.0</ele>
        <time>2021-12-12T09:13:12Z</time>
      </trkpt>
      <trkpt lat="37.253100" lon="-3.274930">
        <ele>1133.5</ele>
        <time>2021-12-12T09:13:27Z</time>
      </trkpt>
      <trkpt lat="37.252901" lon="-3.274864">
        <ele>1133.5</ele>
        <time>2021-12-12T09:13:44Z</time>
      </trkpt>
      <trkpt lat="37.252709" lon="-3.274736">
        <ele>1134.0</ele>
        <time>2021-12-12T09:14:03Z</time>
      </trkpt>
      <trkpt lat="37.252551" lon="-3.274579">
        <ele>1135.9</ele>
        <time>2021-12-12T09:14:21Z</time>
      </trkpt>
      <trkpt lat="37.252361" lon="-3.274498">
        <ele>1135.9</ele>
        <time>2021-12-12T09:14:39Z</time>
      </trkpt>
      <trkpt lat="37.252180" lon="-3.274432">
        <ele>1136.4</ele>
        <time>2021-12-12T09:14:57Z</time>
      </trkpt>
      <trkpt lat="37.251986" lon="-3.274377">
        <ele>1138.3</ele>
        <time>2021-12-12T09:15:22Z</time>
      </trkpt>
      <trkpt lat="37.251790" lon="-3.274437">
        <ele>1138.8</ele>
        <time>2021-12-12T09:15:41Z</time>
      </trkpt>
      <trkpt lat="37.251600" lon="-3.274475">
        <ele>1139.3</ele>
        <time>2021-12-12T09:16:00Z</time>
      </trkpt>
      <trkpt lat="37.251356" lon="-3.274527">
        <ele>1139.3</ele>
        <time>2021-12-12T09:16:26Z</time>
      </trkpt>
      <trkpt lat="37.251161" lon="-3.274606">
        <ele>1140.7</ele>
        <time>2021-12-12T09:16:45Z</time>
      </trkpt>
      <trkpt lat="37.250939" lon="-3.274524">
        <ele>1141.7</ele>
        <time>2021-12-12T09:17:08Z</time>
      </trkpt>
      <trkpt lat="37.250740" lon="-3.274513">
        <ele>1143.1</ele>
        <time>2021-12-12T09:17:25Z</time>
      </trkpt>
      <trkpt lat="37.250551" lon="-3.274477">
        <ele>1143.1</ele>
        <time>2021-12-12T09:17:41Z</time>
      </trkpt>
      <trkpt lat="37.250336" lon="-3.274369">
        <ele>1144.1</ele>
        <time>2021-12-12T09:18:02Z</time>
      </trkpt>
      <trkpt lat="37.250123" lon="-3.274339">
        <ele>1144.1</ele>
        <time>2021-12-12T09:18:23Z</time>
      </trkpt>
      <trkpt lat="37.249921" lon="-3.274212">
        <ele>1145.5</ele>
        <time>2021-12-12T09:18:42Z</time>
      </trkpt>
      <trkpt lat="37.249720" lon="-3.274201">
        <ele>1145.1</ele>
        <time>2021-12-12T09:19:00Z</time>
      </trkpt>
      <trkpt lat="37.249494" lon="-3.274119">
        <ele>1146.0</ele>
        <time>2021-12-12T09:19:24Z</time>
      </trkpt>
      <trkpt lat="37.249262" lon="-3.274054">
        <ele>1146.5</ele>
        <time>2021-12-12T09:19:45Z</time>
      </trkpt>
      <trkpt lat="37.249001" lon="-3.273974">
        <ele>1148.4</ele>
        <time>2021-12-12T09:20:10Z</time>
      </trkpt>
      <trkpt lat="37.248781" lon="-3.273956">
        <ele>1148.4</ele>
        <time>2021-12-12T09:20:28Z</time>
      </trkpt>
      <trkpt lat="37.248568" lon="-3.273959">
        <ele>1149.4</ele>
        <time>2021-12-12T09:20:46Z</time>
      </trkpt>
      <trkpt lat="37.248363" lon="-3.273826">
        <ele>1151.3</ele>
        <time>2021-12-12T09:21:08Z</time>
      </trkpt>
      <trkpt lat="37.248051" lon="-3.273693">
        <ele>1152.8</ele>
        <time>2021-12-12T09:21:56Z</time>
      </trkpt>
      <trkpt lat="37.247705" lon="-3.273593">
        <ele>1153.2</ele>
        <time>2021-12-12T09:22:35Z</time>
      </trkpt>
      <trkpt lat="37.247500" lon="-3.273678">
        <ele>1153.7</ele>
        <time>2021-12-12T09:22:54Z</time>
      </trkpt>
      <trkpt lat="37.247225" lon="-3.273688">
        <ele>1156.1</ele>
        <time>2021-12-12T09:23:23Z</time>
      </trkpt>
      <trkpt lat="37.246977" lon="-3.273810">
        <ele>1155.2</ele>
        <time>2021-12-12T09:23:43Z</time>
      </trkpt>
      <trkpt lat="37.246805" lon="-3.273699">
        <ele>1156.6</ele>
        <time>2021-12-12T09:24:05Z</time>
      </trkpt>
      <trkpt lat="37.246605" lon="-3.273724">
        <ele>1157.6</ele>
        <time>2021-12-12T09:24:25Z</time>
      </trkpt>
      <trkpt lat="37.246332" lon="-3.273705">
        <ele>1157.6</ele>
        <time>2021-12-12T09:24:53Z</time>
      </trkpt>
      <trkpt lat="37.246134" lon="-3.273748">
        <ele>1158.5</ele>
        <time>2021-12-12T09:25:16Z</time>
      </trkpt>
      <trkpt lat="37.245877" lon="-3.273699">
        <ele>1159.5</ele>
        <time>2021-12-12T09:25:39Z</time>
      </trkpt>
      <trkpt lat="37.245681" lon="-3.273738">
        <ele>1159.0</ele>
        <time>2021-12-12T09:26:00Z</time>
      </trkpt>
      <trkpt lat="37.245484" lon="-3.273875">
        <ele>1160.0</ele>
        <time>2021-12-12T09:26:30Z</time>
      </trkpt>
      <trkpt lat="37.245276" lon="-3.274028">
        <ele>1160.4</ele>
        <time>2021-12-12T09:26:48Z</time>
      </trkpt>
      <trkpt lat="37.245045" lon="-3.274048">
        <ele>1161.9</ele>
        <time>2021-12-12T09:27:11Z</time>
      </trkpt>
      <trkpt lat="37.244789" lon="-3.274078">
        <ele>1163.3</ele>
        <time>2021-12-12T09:27:40Z</time>
      </trkpt>
      <trkpt lat="37.244555" lon="-3.274063">
        <ele>1163.3</ele>
        <time>2021-12-12T09:28:09Z</time>
      </trkpt>
      <trkpt lat="37.244366" lon="-3.274114">
        <ele>1164.8</ele>
        <time>2021-12-12T09:29:30Z</time>
      </trkpt>
      <trkpt lat="37.244162" lon="-3.274036">
        <ele>1167.2</ele>
        <time>2021-12-12T09:29:59Z</time>
      </trkpt>
      <trkpt lat="37.243962" lon="-3.274007">
        <ele>1166.7</ele>
        <time>2021-12-12T09:30:22Z</time>
      </trkpt>
      <trkpt lat="37.243769" lon="-3.273858">
        <ele>1167.7</ele>
        <time>2021-12-12T09:31:12Z</time>
      </trkpt>
      <trkpt lat="37.243570" lon="-3.273924">
        <ele>1168.6</ele>
        <time>2021-12-12T09:33:47Z</time>
      </trkpt>
      <trkpt lat="37.243369" lon="-3.273980">
        <ele>1168.6</ele>
        <time>2021-12-12T09:35:32Z</time>
      </trkpt>
      <trkpt lat="37.243169" lon="-3.274243">
        <ele>1170.5</ele>
        <time>2021-12-12T09:36:13Z</time>
      </trkpt>
      <trkpt lat="37.243050" lon="-3.274435">
        <ele>1171.0</ele>
        <time>2021-12-12T09:36:35Z</time>
      </trkpt>
      <trkpt lat="37.242865" lon="-3.274472">
        <ele>1172.9</ele>
        <time>2021-12-12T09:37:00Z</time>
      </trkpt>
      <trkpt lat="37.242680" lon="-3.274618">
        <ele>1173.9</ele>
        <time>2021-12-12T09:37:24Z</time>
      </trkpt>
      <trkpt lat="37.242548" lon="-3.274769">
        <ele>1174.4</ele>
        <time>2021-12-12T09:37:43Z</time>
      </trkpt>
      <trkpt lat="37.242387" lon="-3.274912">
        <ele>1174.9</ele>
        <time>2021-12-12T09:38:01Z</time>
      </trkpt>
      <trkpt lat="37.242197" lon="-3.274905">
        <ele>1176.8</ele>
        <time>2021-12-12T09:38:19Z</time>
      </trkpt>
      <trkpt lat="37.242014" lon="-3.274839">
        <ele>1176.8</ele>
        <time>2021-12-12T09:38:36Z</time>
      </trkpt>
      <trkpt lat="37.241834" lon="-3.274850">
        <ele>1177.3</ele>
        <time>2021-12-12T09:38:54Z</time>
      </trkpt>
      <trkpt lat="37.241647" lon="-3.274886">
        <ele>1177.8</ele>
        <time>2021-12-12T09:39:15Z</time>
      </trkpt>
      <trkpt lat="37.241486" lon="-3.274936">
        <ele>1179.7</ele>
        <time>2021-12-12T09:39:47Z</time>
      </trkpt>
      <trkpt lat="37.241249" lon="-3.275017">
        <ele>1181.6</ele>
        <time>2021-12-12T09:40:13Z</time>
      </trkpt>
      <trkpt lat="37.241069" lon="-3.275153">
        <ele>1181.6</ele>
        <time>2021-12-12T09:40:38Z</time>
      </trkpt>
      <trkpt lat="37.240867" lon="-3.275384">
        <ele>1183.5</ele>
        <time>2021-12-12T09:41:04Z</time>
      </trkpt>
      <trkpt lat="37.240652" lon="-3.275573">
        <ele>1185.0</ele>
        <time>2021-12-12T09:43:39Z</time>
      </trkpt>
      <trkpt lat="37.240388" lon="-3.275618">
        <ele>1186.9</ele>
        <time>2021-12-12T09:45:53Z</time>
      </trkpt>
      <trkpt lat="37.240303" lon="-3.275593">
        <ele>1187.4</ele>
        <time>2021-12-12T09:49:23Z</time>
      </trkpt>
      <trkpt lat="37.240118" lon="-3.275500">
        <ele>1189.3</ele>
        <time>2021-12-12T09:49:54Z</time>
      </trkpt>
      <trkpt lat="37.239884" lon="-3.275521">
        <ele>1190.2</ele>
        <time>2021-12-12T09:50:49Z</time>
      </trkpt>
      <trkpt lat="37.239842" lon="-3.275639">
        <ele>1191.2</ele>
        <time>2021-12-12T09:52:13Z</time>
      </trkpt>
      <trkpt lat="37.239736" lon="-3.275850">
        <ele>1194.1</ele>
        <time>2021-12-12T09:52:40Z</time>
      </trkpt>
      <trkpt lat="37.239672" lon="-3.276059">
        <ele>1193.1</ele>
        <time>2021-12-12T09:53:09Z</time>
      </trkpt>
      <trkpt lat="37.239480" lon="-3.276160">
        <ele>1195.1</ele>
        <time>2021-12-12T09:53:36Z</time>
      </trkpt>
      <trkpt lat="37.239396" lon="-3.276188">
        <ele>1197.9</ele>
        <time>2021-12-12T09:55:05Z</time>
      </trkpt>
      <trkpt lat="37.239188" lon="-3.276235">
        <ele>1202.3</ele>
        <time>2021-12-12T09:56:12Z</time>
      </trkpt>
      <trkpt lat="37.239034" lon="-3.276181">
        <ele>1210.4</ele>
        <time>2021-12-12T09:57:33Z</time>
      </trkpt>
      <trkpt lat="37.238882" lon="-3.276301">
        <ele>1212.4</ele>
        <time>2021-12-12T09:58:06Z</time>
      </trkpt>
      <trkpt lat="37.238658" lon="-3.276420">
        <ele>1213.8</ele>
        <time>2021-12-12T09:58:39Z</time>
      </trkpt>
      <trkpt lat="37.238509" lon="-3.276343">
        <ele>1218.6</ele>
        <time>2021-12-12T09:59:24Z</time>
      </trkpt>
      <trkpt lat="37.238261" lon="-3.276273">
        <ele>1222.5</ele>
        <time>2021-12-12T10:00:10Z</time>
      </trkpt>
      <trkpt lat="37.238070" lon="-3.276271">
        <ele>1225.8</ele>
        <time>2021-12-12T10:00:40Z</time>
      </trkpt>
      <trkpt lat="37.237840" lon="-3.276282">
        <ele>1229.7</ele>
        <time>2021-12-12T10:02:20Z</time>
      </trkpt>
      <trkpt lat="37.237714" lon="-3.276145">
        <ele>1234.5</ele>
        <time>2021-12-12T10:02:55Z</time>
      </trkpt>
      <trkpt lat="37.237563" lon="-3.276078">
        <ele>1237.8</ele>
        <time>2021-12-12T10:03:33Z</time>
      </trkpt>
      <trkpt lat="37.237302" lon="-3.276110">
        <ele>1239.3</ele>
        <time>2021-12-12T10:05:00Z</time>
      </trkpt>
      <trkpt lat="37.237114" lon="-3.276096">
        <ele>1239.3</ele>
        <time>2021-12-12T10:05:34Z</time>
      </trkpt>
      <trkpt lat="37.236936" lon="-3.276092">
        <ele>1237.8</ele>
        <time>2021-12-12T10:06:27Z</time>
      </trkpt>
      <trkpt lat="37.236750" lon="-3.276122">
        <ele>1235.9</ele>
        <time>2021-12-12T10:07:01Z</time>
      </trkpt>
      <trkpt lat="37.236500" lon="-3.276112">
        <ele>1237.8</ele>
        <time>2021-12-12T10:07:41Z</time>
      </trkpt>
      <trkpt lat="37.236385" lon="-3.276030">
        <ele>1238.3</ele>
        <time>2021-12-12T10:08:50Z</time>
      </trkpt>
      <trkpt lat="37.236207" lon="-3.276055">
        <ele>1243.1</ele>
        <time>2021-12-12T10:09:17Z</time>
      </trkpt>
      <trkpt lat="37.236020" lon="-3.276096">
        <ele>1245.0</ele>
        <time>2021-12-12T10:09:46Z</time>
      </trkpt>
      <trkpt lat="37.235887" lon="-3.276186">
        <ele>1246.0</ele>
        <time>2021-12-12T10:11:08Z</time>
      </trkpt>
      <trkpt lat="37.235726" lon="-3.276349">
        <ele>1250.8</ele>
        <time>2021-12-12T10:11:31Z</time>
      </trkpt>
      <trkpt lat="37.235656" lon="-3.276553">
        <ele>1250.8</ele>
        <time>2021-12-12T10:11:52Z</time>
      </trkpt>
      <trkpt lat="37.235421" lon="-3.276498">
        <ele>1255.1</ele>
        <time>2021-12-12T10:12:33Z</time>
      </trkpt>
      <trkpt lat="37.235218" lon="-3.276426">
        <ele>1255.1</ele>
        <time>2021-12-12T10:13:30Z</time>
      </trkpt>
      <trkpt lat="37.235040" lon="-3.276395">
        <ele>1256.1</ele>
        <time>2021-12-12T10:14:26Z</time>
      </trkpt>
      <trkpt lat="37.234835" lon="-3.276393">
        <ele>1251.8</ele>
        <time>2021-12-12T10:14:50Z</time>
      </trkpt>
      <trkpt lat="37.234616" lon="-3.276530">
        <ele>1244.1</ele>
        <time>2021-12-12T10:16:37Z</time>
      </trkpt>
      <trkpt lat="37.234649" lon="-3.276712">
        <ele>1240.2</ele>
        <time>2021-12-12T10:18:00Z</time>
      </trkpt>
      <trkpt lat="37.234855" lon="-3.276955">
        <ele>1246.0</ele>
        <time>2021-12-12T10:19:11Z</time>
      </trkpt>
      <trkpt lat="37.234733" lon="-3.277330">
        <ele>1252.3</ele>
        <time>2021-12-12T10:20:21Z</time>
      </trkpt>
      <trkpt lat="37.234469" lon="-3.277448">
        <ele>1264.8</ele>
        <time>2021-12-12T10:21:38Z</time>
      </trkpt>
      <trkpt lat="37.234323" lon="-3.277835">
        <ele>1270.0</ele>
        <time>2021-12-12T10:23:06Z</time>
      </trkpt>
      <trkpt lat="37.234129" lon="-3.277947">
        <ele>1275.8</ele>
        <time>2021-12-12T10:24:00Z</time>
      </trkpt>
      <trkpt lat="37.233808" lon="-3.278445">
        <ele>1279.2</ele>
        <time>2021-12-12T10:25:24Z</time>
      </trkpt>
      <trkpt lat="37.233782" lon="-3.278827">
        <ele>1283.0</ele>
        <time>2021-12-12T10:26:40Z</time>
      </trkpt>
      <trkpt lat="37.233700" lon="-3.279128">
        <ele>1287.3</ele>
        <time>2021-12-12T10:27:16Z</time>
      </trkpt>
      <trkpt lat="37.233593" lon="-3.279389">
        <ele>1289.7</ele>
        <time>2021-12-12T10:27:40Z</time>
      </trkpt>
      <trkpt lat="37.233451" lon="-3.279564">
        <ele>1291.7</ele>
        <time>2021-12-12T10:28:25Z</time>
      </trkpt>
      <trkpt lat="37.233302" lon="-3.279506">
        <ele>1298.4</ele>
        <time>2021-12-12T10:29:13Z</time>
      </trkpt>
      <trkpt lat="37.233222" lon="-3.279353">
        <ele>1303.2</ele>
        <time>2021-12-12T10:30:00Z</time>
      </trkpt>
      <trkpt lat="37.233009" lon="-3.279343">
        <ele>1313.8</ele>
        <time>2021-12-12T10:30:57Z</time>
      </trkpt>
      <trkpt lat="37.232800" lon="-3.279321">
        <ele>1320.5</ele>
        <time>2021-12-12T10:31:42Z</time>
      </trkpt>
      <trkpt lat="37.232631" lon="-3.279241">
        <ele>1325.8</ele>
        <time>2021-12-12T10:32:33Z</time>
      </trkpt>
      <trkpt lat="37.232522" lon="-3.279222">
        <ele>1328.7</ele>
        <time>2021-12-12T10:35:00Z</time>
      </trkpt>
      <trkpt lat="37.232331" lon="-3.279168">
        <ele>1330.1</ele>
        <time>2021-12-12T10:35:25Z</time>
      </trkpt>
      <trkpt lat="37.232110" lon="-3.279108">
        <ele>1334.4</ele>
        <time>2021-12-12T10:35:53Z</time>
      </trkpt>
      <trkpt lat="37.231915" lon="-3.279129">
        <ele>1337.8</ele>
        <time>2021-12-12T10:36:18Z</time>
      </trkpt>
      <trkpt lat="37.231733" lon="-3.279205">
        <ele>1341.2</ele>
        <time>2021-12-12T10:36:41Z</time>
      </trkpt>
      <trkpt lat="37.231585" lon="-3.279115">
        <ele>1343.6</ele>
        <time>2021-12-12T10:37:11Z</time>
      </trkpt>
      <trkpt lat="37.231419" lon="-3.278956">
        <ele>1347.9</ele>
        <time>2021-12-12T10:37:32Z</time>
      </trkpt>
      <trkpt lat="37.231333" lon="-3.278811">
        <ele>1347.4</ele>
        <time>2021-12-12T10:38:26Z</time>
      </trkpt>
      <trkpt lat="37.231155" lon="-3.278731">
        <ele>1346.0</ele>
        <time>2021-12-12T10:38:42Z</time>
      </trkpt>
      <trkpt lat="37.231017" lon="-3.278502">
        <ele>1346.5</ele>
        <time>2021-12-12T10:38:58Z</time>
      </trkpt>
      <trkpt lat="37.231002" lon="-3.278235">
        <ele>1346.5</ele>
        <time>2021-12-12T10:39:19Z</time>
      </trkpt>
      <trkpt lat="37.231049" lon="-3.277997">
        <ele>1346.9</ele>
        <time>2021-12-12T10:39:39Z</time>
      </trkpt>
      <trkpt lat="37.231066" lon="-3.277742">
        <ele>1346.0</ele>
        <time>2021-12-12T10:39:59Z</time>
      </trkpt>
      <trkpt lat="37.231109" lon="-3.277494">
        <ele>1345.5</ele>
        <time>2021-12-12T10:40:16Z</time>
      </trkpt>
      <trkpt lat="37.231191" lon="-3.277261">
        <ele>1344.5</ele>
        <time>2021-12-12T10:40:32Z</time>
      </trkpt>
      <trkpt lat="37.231209" lon="-3.277017">
        <ele>1344.5</ele>
        <time>2021-12-12T10:40:48Z</time>
      </trkpt>
      <trkpt lat="37.231098" lon="-3.276897">
        <ele>1345.0</ele>
        <time>2021-12-12T10:41:43Z</time>
      </trkpt>
      <trkpt lat="37.230907" lon="-3.276908">
        <ele>1345.5</ele>
        <time>2021-12-12T10:42:01Z</time>
      </trkpt>
      <trkpt lat="37.230716" lon="-3.276961">
        <ele>1344.1</ele>
        <time>2021-12-12T10:42:18Z</time>
      </trkpt>
      <trkpt lat="37.230513" lon="-3.276930">
        <ele>1344.1</ele>
        <time>2021-12-12T10:42:54Z</time>
      </trkpt>
      <trkpt lat="37.230335" lon="-3.276925">
        <ele>1343.6</ele>
        <time>2021-12-12T10:43:10Z</time>
      </trkpt>
      <trkpt lat="37.230142" lon="-3.276893">
        <ele>1344.5</ele>
        <time>2021-12-12T10:43:27Z</time>
      </trkpt>
      <trkpt lat="37.229918" lon="-3.276916">
        <ele>1343.6</ele>
        <time>2021-12-12T10:43:45Z</time>
      </trkpt>
      <trkpt lat="37.229691" lon="-3.276921">
        <ele>1343.6</ele>
        <time>2021-12-12T10:44:03Z</time>
      </trkpt>
      <trkpt lat="37.229500" lon="-3.277032">
        <ele>1344.5</ele>
        <time>2021-12-12T10:44:20Z</time>
      </trkpt>
      <trkpt lat="37.229312" lon="-3.277186">
        <ele>1343.1</ele>
        <time>2021-12-12T10:44:38Z</time>
      </trkpt>
      <trkpt lat="37.229123" lon="-3.277359">
        <ele>1345.5</ele>
        <time>2021-12-12T10:44:57Z</time>
      </trkpt>
      <trkpt lat="37.228944" lon="-3.277516">
        <ele>1347.9</ele>
        <time>2021-12-12T10:45:16Z</time>
      </trkpt>
      <trkpt lat="37.228798" lon="-3.277672">
        <ele>1351.3</ele>
        <time>2021-12-12T10:45:34Z</time>
      </trkpt>
      <trkpt lat="37.228601" lon="-3.277694">
        <ele>1352.7</ele>
        <time>2021-12-12T10:45:52Z</time>
      </trkpt>
      <trkpt lat="37.228441" lon="-3.277546">
        <ele>1355.1</ele>
        <time>2021-12-12T10:46:11Z</time>
      </trkpt>
      <trkpt lat="37.228402" lon="-3.277291">
        <ele>1357.0</ele>
        <time>2021-12-12T10:46:28Z</time>
      </trkpt>
      <trkpt lat="37.228369" lon="-3.277048">
        <ele>1357.0</ele>
        <time>2021-12-12T10:46:44Z</time>
      </trkpt>
      <trkpt lat="37.228327" lon="-3.276833">
        <ele>1358.5</ele>
        <time>2021-12-12T10:46:59Z</time>
      </trkpt>
      <trkpt lat="37.228205" lon="-3.276679">
        <ele>1359.0</ele>
        <time>2021-12-12T10:47:14Z</time>
      </trkpt>
      <trkpt lat="37.228013" lon="-3.276675">
        <ele>1359.0</ele>
        <time>2021-12-12T10:47:29Z</time>
      </trkpt>
      <trkpt lat="37.227835" lon="-3.276679">
        <ele>1359.4</ele>
        <time>2021-12-12T10:47:43Z</time>
      </trkpt>
      <trkpt lat="37.227639" lon="-3.276707">
        <ele>1359.0</ele>
        <time>2021-12-12T10:47:58Z</time>
      </trkpt>
      <trkpt lat="37.227448" lon="-3.276730">
        <ele>1357.5</ele>
        <time>2021-12-12T10:48:14Z</time>
      </trkpt>
      <trkpt lat="37.227257" lon="-3.276674">
        <ele>1355.6</ele>
        <time>2021-12-12T10:48:29Z</time>
      </trkpt>
      <trkpt lat="37.227062" lon="-3.276670">
        <ele>1354.2</ele>
        <time>2021-12-12T10:48:45Z</time>
      </trkpt>
      <trkpt lat="37.226869" lon="-3.276862">
        <ele>1351.8</ele>
        <time>2021-12-12T10:49:18Z</time>
      </trkpt>
      <trkpt lat="37.226729" lon="-3.276829">
        <ele>1351.3</ele>
        <time>2021-12-12T10:49:51Z</time>
      </trkpt>
      <trkpt lat="37.226786" lon="-3.276618">
        <ele>1352.7</ele>
        <time>2021-12-12T10:50:20Z</time>
      </trkpt>
      <trkpt lat="37.226929" lon="-3.276451">
        <ele>1352.7</ele>
        <time>2021-12-12T10:50:35Z</time>
      </trkpt>
      <trkpt lat="37.227035" lon="-3.276264">
        <ele>1352.2</ele>
        <time>2021-12-12T10:50:52Z</time>
      </trkpt>
      <trkpt lat="37.227365" lon="-3.276185">
        <ele>1350.8</ele>
        <time>2021-12-12T10:51:15Z</time>
      </trkpt>
      <trkpt lat="37.227563" lon="-3.275998">
        <ele>1349.8</ele>
        <time>2021-12-12T10:51:36Z</time>
      </trkpt>
      <trkpt lat="37.227769" lon="-3.275838">
        <ele>1347.9</ele>
        <time>2021-12-12T10:51:52Z</time>
      </trkpt>
      <trkpt lat="37.227954" lon="-3.275672">
        <ele>1348.4</ele>
        <time>2021-12-12T10:52:11Z</time>
      </trkpt>
      <trkpt lat="37.228036" lon="-3.275477">
        <ele>1346.0</ele>
        <time>2021-12-12T10:52:26Z</time>
      </trkpt>
      <trkpt lat="37.228024" lon="-3.275177">
        <ele>1343.1</ele>
        <time>2021-12-12T10:52:45Z</time>
      </trkpt>
      <trkpt lat="37.228177" lon="-3.275050">
        <ele>1342.1</ele>
        <time>2021-12-12T10:52:59Z</time>
      </trkpt>
      <trkpt lat="37.228380" lon="-3.274965">
        <ele>1341.2</ele>
        <time>2021-12-12T10:53:17Z</time>
      </trkpt>
      <trkpt lat="37.228600" lon="-3.274937">
        <ele>1339.7</ele>
        <time>2021-12-12T10:53:34Z</time>
      </trkpt>
      <trkpt lat="37.228799" lon="-3.274818">
        <ele>1337.3</ele>
        <time>2021-12-12T10:53:49Z</time>
      </trkpt>
      <trkpt lat="37.228994" lon="-3.274804">
        <ele>1335.4</ele>
        <time>2021-12-12T10:54:06Z</time>
      </trkpt>
      <trkpt lat="37.229172" lon="-3.274683">
        <ele>1335.4</ele>
        <time>2021-12-12T10:54:21Z</time>
      </trkpt>
      <trkpt lat="37.229364" lon="-3.274591">
        <ele>1335.9</ele>
        <time>2021-12-12T10:54:37Z</time>
      </trkpt>
      <trkpt lat="37.229546" lon="-3.274527">
        <ele>1336.9</ele>
        <time>2021-12-12T10:54:51Z</time>
      </trkpt>
      <trkpt lat="37.229727" lon="-3.274514">
        <ele>1335.4</ele>
        <time>2021-12-12T10:55:47Z</time>
      </trkpt>
      <trkpt lat="37.229915" lon="-3.274439">
        <ele>1334.0</ele>
        <time>2021-12-12T10:57:07Z</time>
      </trkpt>
      <trkpt lat="37.230129" lon="-3.274394">
        <ele>1332.5</ele>
        <time>2021-12-12T10:57:22Z</time>
      </trkpt>
      <trkpt lat="37.230287" lon="-3.274271">
        <ele>1331.6</ele>
        <time>2021-12-12T10:57:38Z</time>
      </trkpt>
      <trkpt lat="37.230320" lon="-3.274045">
        <ele>1330.1</ele>
        <time>2021-12-12T10:57:53Z</time>
      </trkpt>
      <trkpt lat="37.230202" lon="-3.273825">
        <ele>1326.3</ele>
        <time>2021-12-12T10:58:09Z</time>
      </trkpt>
      <trkpt lat="37.230059" lon="-3.273645">
        <ele>1322.4</ele>
        <time>2021-12-12T10:58:23Z</time>
      </trkpt>
      <trkpt lat="37.229929" lon="-3.273492">
        <ele>1323.4</ele>
        <time>2021-12-12T10:59:41Z</time>
      </trkpt>
      <trkpt lat="37.229779" lon="-3.273342">
        <ele>1325.8</ele>
        <time>2021-12-12T10:59:57Z</time>
      </trkpt>
      <trkpt lat="37.229593" lon="-3.273267">
        <ele>1324.8</ele>
        <time>2021-12-12T11:00:12Z</time>
      </trkpt>
      <trkpt lat="37.229447" lon="-3.273102">
        <ele>1323.9</ele>
        <time>2021-12-12T11:00:28Z</time>
      </trkpt>
      <trkpt lat="37.229299" lon="-3.272851">
        <ele>1323.4</ele>
        <time>2021-12-12T11:00:46Z</time>
      </trkpt>
      <trkpt lat="37.229439" lon="-3.272705">
        <ele>1324.8</ele>
        <time>2021-12-12T11:01:07Z</time>
      </trkpt>
      <trkpt lat="37.229650" lon="-3.272683">
        <ele>1325.8</ele>
        <time>2021-12-12T11:01:24Z</time>
      </trkpt>
      <trkpt lat="37.229828" lon="-3.272579">
        <ele>1326.8</ele>
        <time>2021-12-12T11:01:38Z</time>
      </trkpt>
      <trkpt lat="37.229979" lon="-3.272425">
        <ele>1326.8</ele>
        <time>2021-12-12T11:01:52Z</time>
      </trkpt>
      <trkpt lat="37.230073" lon="-3.272233">
        <ele>1326.3</ele>
        <time>2021-12-12T11:02:05Z</time>
      </trkpt>
      <trkpt lat="37.230247" lon="-3.272117">
        <ele>1323.4</ele>
        <time>2021-12-12T11:02:19Z</time>
      </trkpt>
      <trkpt lat="37.230420" lon="-3.272035">
        <ele>1321.9</ele>
        <time>2021-12-12T11:02:33Z</time>
      </trkpt>
      <trkpt lat="37.230616" lon="-3.272108">
        <ele>1320.5</ele>
        <time>2021-12-12T11:02:48Z</time>
      </trkpt>
      <trkpt lat="37.230811" lon="-3.272141">
        <ele>1321.0</ele>
        <time>2021-12-12T11:03:02Z</time>
      </trkpt>
      <trkpt lat="37.231013" lon="-3.272117">
        <ele>1321.5</ele>
        <time>2021-12-12T11:03:16Z</time>
      </trkpt>
      <trkpt lat="37.231217" lon="-3.272089">
        <ele>1321.9</ele>
        <time>2021-12-12T11:03:30Z</time>
      </trkpt>
      <trkpt lat="37.231402" lon="-3.272050">
        <ele>1321.0</ele>
        <time>2021-12-12T11:03:42Z</time>
      </trkpt>
      <trkpt lat="37.231465" lon="-3.271835">
        <ele>1320.5</ele>
        <time>2021-12-12T11:03:56Z</time>
      </trkpt>
      <trkpt lat="37.231445" lon="-3.271588">
        <ele>1320.5</ele>
        <time>2021-12-12T11:04:10Z</time>
      </trkpt>
      <trkpt lat="37.231394" lon="-3.271352">
        <ele>1321.5</ele>
        <time>2021-12-12T11:04:24Z</time>
      </trkpt>
      <trkpt lat="37.231331" lon="-3.271135">
        <ele>1322.9</ele>
        <time>2021-12-12T11:04:37Z</time>
      </trkpt>
      <trkpt lat="37.231303" lon="-3.270908">
        <ele>1322.4</ele>
        <time>2021-12-12T11:04:50Z</time>
      </trkpt>
      <trkpt lat="37.231336" lon="-3.270687">
        <ele>1321.0</ele>
        <time>2021-12-12T11:05:03Z</time>
      </trkpt>
      <trkpt lat="37.231224" lon="-3.270510">
        <ele>1321.5</ele>
        <time>2021-12-12T11:05:18Z</time>
      </trkpt>
      <trkpt lat="37.231036" lon="-3.270558">
        <ele>1321.0</ele>
        <time>2021-12-12T11:05:32Z</time>
      </trkpt>
      <trkpt lat="37.230854" lon="-3.270630">
        <ele>1319.1</ele>
        <time>2021-12-12T11:05:45Z</time>
      </trkpt>
      <trkpt lat="37.230655" lon="-3.270674">
        <ele>1320.0</ele>
        <time>2021-12-12T11:05:59Z</time>
      </trkpt>
      <trkpt lat="37.230472" lon="-3.270596">
        <ele>1320.0</ele>
        <time>2021-12-12T11:06:15Z</time>
      </trkpt>
      <trkpt lat="37.230482" lon="-3.270361">
        <ele>1322.4</ele>
        <time>2021-12-12T11:06:30Z</time>
      </trkpt>
      <trkpt lat="37.230507" lon="-3.270137">
        <ele>1323.4</ele>
        <time>2021-12-12T11:06:43Z</time>
      </trkpt>
      <trkpt lat="37.230499" lon="-3.269903">
        <ele>1323.9</ele>
        <time>2021-12-12T11:06:57Z</time>
      </trkpt>
      <trkpt lat="37.230557" lon="-3.269672">
        <ele>1323.4</ele>
        <time>2021-12-12T11:07:11Z</time>
      </trkpt>
      <trkpt lat="37.230586" lon="-3.269452">
        <ele>1322.9</ele>
        <time>2021-12-12T11:07:25Z</time>
      </trkpt>
      <trkpt lat="37.230575" lon="-3.269210">
        <ele>1324.4</ele>
        <time>2021-12-12T11:07:39Z</time>
      </trkpt>
      <trkpt lat="37.230468" lon="-3.269004">
        <ele>1324.4</ele>
        <time>2021-12-12T11:07:52Z</time>
      </trkpt>
      <trkpt lat="37.230357" lon="-3.268793">
        <ele>1323.4</ele>
        <time>2021-12-12T11:08:06Z</time>
      </trkpt>
      <trkpt lat="37.230252" lon="-3.268586">
        <ele>1323.9</ele>
        <time>2021-12-12T11:08:20Z</time>
      </trkpt>
      <trkpt lat="37.230102" lon="-3.268419">
        <ele>1324.4</ele>
        <time>2021-12-12T11:08:35Z</time>
      </trkpt>
      <trkpt lat="37.229997" lon="-3.268216">
        <ele>1324.4</ele>
        <time>2021-12-12T11:08:49Z</time>
      </trkpt>
      <trkpt lat="37.229976" lon="-3.267970">
        <ele>1321.9</ele>
        <time>2021-12-12T11:09:03Z</time>
      </trkpt>
      <trkpt lat="37.229983" lon="-3.267710">
        <ele>1321.0</ele>
        <time>2021-12-12T11:09:18Z</time>
      </trkpt>
      <trkpt lat="37.229918" lon="-3.267465">
        <ele>1321.5</ele>
        <time>2021-12-12T11:09:32Z</time>
      </trkpt>
      <trkpt lat="37.229813" lon="-3.267267">
        <ele>1321.0</ele>
        <time>2021-12-12T11:09:45Z</time>
      </trkpt>
      <trkpt lat="37.229652" lon="-3.267161">
        <ele>1320.0</ele>
        <time>2021-12-12T11:09:58Z</time>
      </trkpt>
      <trkpt lat="37.229473" lon="-3.267209">
        <ele>1318.6</ele>
        <time>2021-12-12T11:10:12Z</time>
      </trkpt>
      <trkpt lat="37.229278" lon="-3.267205">
        <ele>1318.1</ele>
        <time>2021-12-12T11:10:26Z</time>
      </trkpt>
      <trkpt lat="37.229257" lon="-3.267000">
        <ele>1316.2</ele>
        <time>2021-12-12T11:10:40Z</time>
      </trkpt>
      <trkpt lat="37.229364" lon="-3.266791">
        <ele>1314.7</ele>
        <time>2021-12-12T11:10:55Z</time>
      </trkpt>
      <trkpt lat="37.229435" lon="-3.266544">
        <ele>1312.8</ele>
        <time>2021-12-12T11:11:11Z</time>
      </trkpt>
      <trkpt lat="37.229485" lon="-3.266306">
        <ele>1313.3</ele>
        <time>2021-12-12T11:11:25Z</time>
      </trkpt>
      <trkpt lat="37.229518" lon="-3.266071">
        <ele>1311.9</ele>
        <time>2021-12-12T11:11:39Z</time>
      </trkpt>
      <trkpt lat="37.229415" lon="-3.265878">
        <ele>1311.9</ele>
        <time>2021-12-12T11:11:53Z</time>
      </trkpt>
      <trkpt lat="37.229225" lon="-3.265826">
        <ele>1309.5</ele>
        <time>2021-12-12T11:12:10Z</time>
      </trkpt>
      <trkpt lat="37.229083" lon="-3.265667">
        <ele>1306.6</ele>
        <time>2021-12-12T11:12:25Z</time>
      </trkpt>
      <trkpt lat="37.229059" lon="-3.265400">
        <ele>1309.9</ele>
        <time>2021-12-12T11:12:41Z</time>
      </trkpt>
      <trkpt lat="37.229023" lon="-3.265180">
        <ele>1309.0</ele>
        <time>2021-12-12T11:12:55Z</time>
      </trkpt>
      <trkpt lat="37.228879" lon="-3.265052">
        <ele>1306.6</ele>
        <time>2021-12-12T11:13:08Z</time>
      </trkpt>
      <trkpt lat="37.228910" lon="-3.264821">
        <ele>1308.0</ele>
        <time>2021-12-12T11:13:24Z</time>
      </trkpt>
      <trkpt lat="37.228881" lon="-3.264588">
        <ele>1308.5</ele>
        <time>2021-12-12T11:13:38Z</time>
      </trkpt>
      <trkpt lat="37.228783" lon="-3.264404">
        <ele>1308.5</ele>
        <time>2021-12-12T11:13:52Z</time>
      </trkpt>
      <trkpt lat="37.228629" lon="-3.264289">
        <ele>1311.9</ele>
        <time>2021-12-12T11:14:05Z</time>
      </trkpt>
      <trkpt lat="37.228537" lon="-3.264075">
        <ele>1312.3</ele>
        <time>2021-12-12T11:14:20Z</time>
      </trkpt>
      <trkpt lat="37.228449" lon="-3.263852">
        <ele>1312.8</ele>
        <time>2021-12-12T11:14:35Z</time>
      </trkpt>
      <trkpt lat="37.228328" lon="-3.263666">
        <ele>1313.3</ele>
        <time>2021-12-12T11:14:53Z</time>
      </trkpt>
      <trkpt lat="37.228191" lon="-3.263536">
        <ele>1313.8</ele>
        <time>2021-12-12T11:15:33Z</time>
      </trkpt>
      <trkpt lat="37.228203" lon="-3.263336">
        <ele>1309.9</ele>
        <time>2021-12-12T11:16:02Z</time>
      </trkpt>
      <trkpt lat="37.228145" lon="-3.263147">
        <ele>1304.2</ele>
        <time>2021-12-12T11:16:21Z</time>
      </trkpt>
      <trkpt lat="37.228058" lon="-3.262939">
        <ele>1301.3</ele>
        <time>2021-12-12T11:16:40Z</time>
      </trkpt>
      <trkpt lat="37.227956" lon="-3.262734">
        <ele>1297.4</ele>
        <time>2021-12-12T11:16:54Z</time>
      </trkpt>
      <trkpt lat="37.227946" lon="-3.262516">
        <ele>1295.5</ele>
        <time>2021-12-12T11:17:09Z</time>
      </trkpt>
      <trkpt lat="37.228069" lon="-3.262355">
        <ele>1291.7</ele>
        <time>2021-12-12T11:17:24Z</time>
      </trkpt>
      <trkpt lat="37.228204" lon="-3.262221">
        <ele>1289.3</ele>
        <time>2021-12-12T11:17:42Z</time>
      </trkpt>
      <trkpt lat="37.228249" lon="-3.261990">
        <ele>1284.9</ele>
        <time>2021-12-12T11:17:59Z</time>
      </trkpt>
      <trkpt lat="37.228338" lon="-3.261887">
        <ele>1278.7</ele>
        <time>2021-12-12T11:18:22Z</time>
      </trkpt>
      <trkpt lat="37.228338" lon="-3.261663">
        <ele>1273.4</ele>
        <time>2021-12-12T11:19:01Z</time>
      </trkpt>
      <trkpt lat="37.228485" lon="-3.261573">
        <ele>1272.4</ele>
        <time>2021-12-12T11:19:20Z</time>
      </trkpt>
      <trkpt lat="37.228638" lon="-3.261733">
        <ele>1273.9</ele>
        <time>2021-12-12T11:19:49Z</time>
      </trkpt>
      <trkpt lat="37.228778" lon="-3.261902">
        <ele>1277.2</ele>
        <time>2021-12-12T11:20:17Z</time>
      </trkpt>
      <trkpt lat="37.228959" lon="-3.261970">
        <ele>1278.7</ele>
        <time>2021-12-12T11:20:35Z</time>
      </trkpt>
      <trkpt lat="37.229136" lon="-3.262066">
        <ele>1280.6</ele>
        <time>2021-12-12T11:20:52Z</time>
      </trkpt>
      <trkpt lat="37.229288" lon="-3.262179">
        <ele>1281.1</ele>
        <time>2021-12-12T11:21:08Z</time>
      </trkpt>
      <trkpt lat="37.229426" lon="-3.262346">
        <ele>1280.6</ele>
        <time>2021-12-12T11:21:25Z</time>
      </trkpt>
      <trkpt lat="37.229585" lon="-3.262458">
        <ele>1280.6</ele>
        <time>2021-12-12T11:21:40Z</time>
      </trkpt>
      <trkpt lat="37.229765" lon="-3.262527">
        <ele>1280.6</ele>
        <time>2021-12-12T11:21:55Z</time>
      </trkpt>
      <trkpt lat="37.229871" lon="-3.262650">
        <ele>1280.1</ele>
        <time>2021-12-12T11:22:34Z</time>
      </trkpt>
      <trkpt lat="37.230037" lon="-3.262742">
        <ele>1277.2</ele>
        <time>2021-12-12T11:22:50Z</time>
      </trkpt>
      <trkpt lat="37.230183" lon="-3.262901">
        <ele>1276.3</ele>
        <time>2021-12-12T11:23:05Z</time>
      </trkpt>
      <trkpt lat="37.230278" lon="-3.263129">
        <ele>1272.4</ele>
        <time>2021-12-12T11:23:21Z</time>
      </trkpt>
      <trkpt lat="37.230284" lon="-3.263372">
        <ele>1272.9</ele>
        <time>2021-12-12T11:23:36Z</time>
      </trkpt>
      <trkpt lat="37.230240" lon="-3.263620">
        <ele>1272.0</ele>
        <time>2021-12-12T11:23:51Z</time>
      </trkpt>
      <trkpt lat="37.230437" lon="-3.263678">
        <ele>1272.9</ele>
        <time>2021-12-12T11:24:08Z</time>
      </trkpt>
      <trkpt lat="37.230631" lon="-3.263684">
        <ele>1274.8</ele>
        <time>2021-12-12T11:24:25Z</time>
      </trkpt>
      <trkpt lat="37.230771" lon="-3.263869">
        <ele>1275.8</ele>
        <time>2021-12-12T11:24:42Z</time>
      </trkpt>
      <trkpt lat="37.230918" lon="-3.264077">
        <ele>1275.3</ele>
        <time>2021-12-12T11:24:59Z</time>
      </trkpt>
      <trkpt lat="37.231026" lon="-3.264299">
        <ele>1275.3</ele>
        <time>2021-12-12T11:25:14Z</time>
      </trkpt>
      <trkpt lat="37.231049" lon="-3.264530">
        <ele>1271.5</ele>
        <time>2021-12-12T11:25:29Z</time>
      </trkpt>
      <trkpt lat="37.231040" lon="-3.264771">
        <ele>1269.6</ele>
        <time>2021-12-12T11:25:48Z</time>
      </trkpt>
      <trkpt lat="37.231113" lon="-3.264999">
        <ele>1268.6</ele>
        <time>2021-12-12T11:26:05Z</time>
      </trkpt>
      <trkpt lat="37.231301" lon="-3.265038">
        <ele>1268.6</ele>
        <time>2021-12-12T11:26:30Z</time>
      </trkpt>
      <trkpt lat="37.231486" lon="-3.265020">
        <ele>1271.5</ele>
        <time>2021-12-12T11:26:47Z</time>
      </trkpt>
      <trkpt lat="37.231663" lon="-3.265106">
        <ele>1273.4</ele>
        <time>2021-12-12T11:27:03Z</time>
      </trkpt>
      <trkpt lat="37.231717" lon="-3.265348">
        <ele>1273.9</ele>
        <time>2021-12-12T11:27:19Z</time>
      </trkpt>
      <trkpt lat="37.231756" lon="-3.265594">
        <ele>1272.4</ele>
        <time>2021-12-12T11:27:34Z</time>
      </trkpt>
      <trkpt lat="37.231831" lon="-3.265821">
        <ele>1270.0</ele>
        <time>2021-12-12T11:27:49Z</time>
      </trkpt>
      <trkpt lat="37.231976" lon="-3.265982">
        <ele>1274.8</ele>
        <time>2021-12-12T11:28:06Z</time>
      </trkpt>
      <trkpt lat="37.232093" lon="-3.266183">
        <ele>1277.2</ele>
        <time>2021-12-12T11:28:23Z</time>
      </trkpt>
      <trkpt lat="37.232130" lon="-3.266412">
        <ele>1276.3</ele>
        <time>2021-12-12T11:28:38Z</time>
      </trkpt>
      <trkpt lat="37.232019" lon="-3.266604">
        <ele>1274.4</ele>
        <time>2021-12-12T11:28:51Z</time>
      </trkpt>
      <trkpt lat="37.232092" lon="-3.266823">
        <ele>1274.8</ele>
        <time>2021-12-12T11:29:05Z</time>
      </trkpt>
      <trkpt lat="37.232248" lon="-3.266964">
        <ele>1275.8</ele>
        <time>2021-12-12T11:29:20Z</time>
      </trkpt>
      <trkpt lat="37.232395" lon="-3.267118">
        <ele>1277.7</ele>
        <time>2021-12-12T11:29:35Z</time>
      </trkpt>
      <trkpt lat="37.232521" lon="-3.267311">
        <ele>1279.7</ele>
        <time>2021-12-12T11:29:52Z</time>
      </trkpt>
      <trkpt lat="37.232587" lon="-3.267556">
        <ele>1279.2</ele>
        <time>2021-12-12T11:30:08Z</time>
      </trkpt>
      <trkpt lat="37.232605" lon="-3.267805">
        <ele>1279.2</ele>
        <time>2021-12-12T11:30:23Z</time>
      </trkpt>
      <trkpt lat="37.232599" lon="-3.268055">
        <ele>1276.8</ele>
        <time>2021-12-12T11:30:38Z</time>
      </trkpt>
      <trkpt lat="37.232720" lon="-3.268259">
        <ele>1274.4</ele>
        <time>2021-12-12T11:30:52Z</time>
      </trkpt>
      <trkpt lat="37.232898" lon="-3.268226">
        <ele>1275.3</ele>
        <time>2021-12-12T11:31:07Z</time>
      </trkpt>
      <trkpt lat="37.233089" lon="-3.268190">
        <ele>1276.8</ele>
        <time>2021-12-12T11:31:21Z</time>
      </trkpt>
      <trkpt lat="37.233266" lon="-3.268293">
        <ele>1277.2</ele>
        <time>2021-12-12T11:31:35Z</time>
      </trkpt>
      <trkpt lat="37.233414" lon="-3.268451">
        <ele>1277.7</ele>
        <time>2021-12-12T11:31:49Z</time>
      </trkpt>
      <trkpt lat="37.233548" lon="-3.268621">
        <ele>1275.8</ele>
        <time>2021-12-12T11:32:02Z</time>
      </trkpt>
      <trkpt lat="37.233662" lon="-3.268805">
        <ele>1274.8</ele>
        <time>2021-12-12T11:32:16Z</time>
      </trkpt>
      <trkpt lat="37.233726" lon="-3.269039">
        <ele>1274.8</ele>
        <time>2021-12-12T11:32:30Z</time>
      </trkpt>
      <trkpt lat="37.233720" lon="-3.269302">
        <ele>1273.4</ele>
        <time>2021-12-12T11:32:45Z</time>
      </trkpt>
      <trkpt lat="37.233688" lon="-3.269554">
        <ele>1272.0</ele>
        <time>2021-12-12T11:32:59Z</time>
      </trkpt>
      <trkpt lat="37.233681" lon="-3.269786">
        <ele>1269.1</ele>
        <time>2021-12-12T11:33:13Z</time>
      </trkpt>
      <trkpt lat="37.233689" lon="-3.270040">
        <ele>1265.7</ele>
        <time>2021-12-12T11:33:27Z</time>
      </trkpt>
      <trkpt lat="37.233830" lon="-3.270167">
        <ele>1264.8</ele>
        <time>2021-12-12T11:33:41Z</time>
      </trkpt>
      <trkpt lat="37.234027" lon="-3.270115">
        <ele>1268.6</ele>
        <time>2021-12-12T11:33:59Z</time>
      </trkpt>
      <trkpt lat="37.234212" lon="-3.270153">
        <ele>1266.7</ele>
        <time>2021-12-12T11:34:18Z</time>
      </trkpt>
      <trkpt lat="37.234412" lon="-3.270267">
        <ele>1267.6</ele>
        <time>2021-12-12T11:34:43Z</time>
      </trkpt>
      <trkpt lat="37.234465" lon="-3.270517">
        <ele>1267.6</ele>
        <time>2021-12-12T11:34:59Z</time>
      </trkpt>
      <trkpt lat="37.234496" lon="-3.270798">
        <ele>1263.8</ele>
        <time>2021-12-12T11:35:16Z</time>
      </trkpt>
      <trkpt lat="37.234490" lon="-3.271086">
        <ele>1262.8</ele>
        <time>2021-12-12T11:35:32Z</time>
      </trkpt>
      <trkpt lat="37.234454" lon="-3.271332">
        <ele>1261.4</ele>
        <time>2021-12-12T11:35:48Z</time>
      </trkpt>
      <trkpt lat="37.234371" lon="-3.271599">
        <ele>1259.9</ele>
        <time>2021-12-12T11:36:04Z</time>
      </trkpt>
      <trkpt lat="37.234357" lon="-3.271856">
        <ele>1264.8</ele>
        <time>2021-12-12T11:36:23Z</time>
      </trkpt>
      <trkpt lat="37.234486" lon="-3.272067">
        <ele>1268.6</ele>
        <time>2021-12-12T11:36:50Z</time>
      </trkpt>
      <trkpt lat="37.234664" lon="-3.272019">
        <ele>1269.1</ele>
        <time>2021-12-12T11:37:55Z</time>
      </trkpt>
      <trkpt lat="37.234848" lon="-3.271913">
        <ele>1272.0</ele>
        <time>2021-12-12T11:38:17Z</time>
      </trkpt>
      <trkpt lat="37.235028" lon="-3.271812">
        <ele>1275.8</ele>
        <time>2021-12-12T11:38:41Z</time>
      </trkpt>
      <trkpt lat="37.235230" lon="-3.271711">
        <ele>1277.7</ele>
        <time>2021-12-12T11:39:00Z</time>
      </trkpt>
      <trkpt lat="37.235393" lon="-3.271650">
        <ele>1279.2</ele>
        <time>2021-12-12T11:39:19Z</time>
      </trkpt>
      <trkpt lat="37.235345" lon="-3.271911">
        <ele>1279.7</ele>
        <time>2021-12-12T11:39:43Z</time>
      </trkpt>
      <trkpt lat="37.235284" lon="-3.272166">
        <ele>1282.1</ele>
        <time>2021-12-12T11:40:01Z</time>
      </trkpt>
      <trkpt lat="37.235324" lon="-3.272398">
        <ele>1282.1</ele>
        <time>2021-12-12T11:40:16Z</time>
      </trkpt>
      <trkpt lat="37.235446" lon="-3.272572">
        <ele>1282.5</ele>
        <time>2021-12-12T11:40:30Z</time>
      </trkpt>
      <trkpt lat="37.235536" lon="-3.272789">
        <ele>1282.5</ele>
        <time>2021-12-12T11:40:45Z</time>
      </trkpt>
      <trkpt lat="37.235571" lon="-3.273011">
        <ele>1280.1</ele>
        <time>2021-12-12T11:41:00Z</time>
      </trkpt>
      <trkpt lat="37.235567" lon="-3.273260">
        <ele>1278.2</ele>
        <time>2021-12-12T11:41:15Z</time>
      </trkpt>
      <trkpt lat="37.235523" lon="-3.273496">
        <ele>1277.7</ele>
        <time>2021-12-12T11:41:31Z</time>
      </trkpt>
      <trkpt lat="37.235458" lon="-3.273723">
        <ele>1275.3</ele>
        <time>2021-12-12T11:41:46Z</time>
      </trkpt>
      <trkpt lat="37.235374" lon="-3.273949">
        <ele>1273.9</ele>
        <time>2021-12-12T11:42:01Z</time>
      </trkpt>
      <trkpt lat="37.235371" lon="-3.274186">
        <ele>1273.4</ele>
        <time>2021-12-12T11:42:15Z</time>
      </trkpt>
      <trkpt lat="37.235494" lon="-3.274378">
        <ele>1274.4</ele>
        <time>2021-12-12T11:42:30Z</time>
      </trkpt>
      <trkpt lat="37.235652" lon="-3.274511">
        <ele>1277.7</ele>
        <time>2021-12-12T11:42:47Z</time>
      </trkpt>
      <trkpt lat="37.235650" lon="-3.274687">
        <ele>1279.7</ele>
        <time>2021-12-12T11:43:30Z</time>
      </trkpt>
      <trkpt lat="37.235629" lon="-3.274757">
        <ele>1280.6</ele>
        <time>2021-12-12T11:45:55Z</time>
      </trkpt>
      <trkpt lat="37.235764" lon="-3.274619">
        <ele>1279.7</ele>
        <time>2021-12-12T11:46:22Z</time>
      </trkpt>
      <trkpt lat="37.235938" lon="-3.274627">
        <ele>1281.6</ele>
        <time>2021-12-12T11:46:40Z</time>
      </trkpt>
      <trkpt lat="37.235903" lon="-3.274797">
        <ele>1282.5</ele>
        <time>2021-12-12T11:47:22Z</time>
      </trkpt>
      <trkpt lat="37.235826" lon="-3.274829">
        <ele>1282.5</ele>
        <time>2021-12-12T11:48:37Z</time>
      </trkpt>
      <trkpt lat="37.235729" lon="-3.274931">
        <ele>1283.0</ele>
        <time>2021-12-12T11:49:03Z</time>
      </trkpt>
      <trkpt lat="37.235564" lon="-3.275057">
        <ele>1283.0</ele>
        <time>2021-12-12T11:49:21Z</time>
      </trkpt>
      <trkpt lat="37.235381" lon="-3.275131">
        <ele>1285.4</ele>
        <time>2021-12-12T11:49:40Z</time>
      </trkpt>
      <trkpt lat="37.235202" lon="-3.275225">
        <ele>1288.3</ele>
        <time>2021-12-12T11:50:01Z</time>
      </trkpt>
      <trkpt lat="37.235035" lon="-3.275312">
        <ele>1291.2</ele>
        <time>2021-12-12T11:50:18Z</time>
      </trkpt>
      <trkpt lat="37.234916" lon="-3.275314">
        <ele>1291.2</ele>
        <time>2021-12-12T11:50:44Z</time>
      </trkpt>
      <trkpt lat="37.234844" lon="-3.275478">
        <ele>1291.2</ele>
        <time>2021-12-12T11:51:24Z</time>
      </trkpt>
      <trkpt lat="37.234680" lon="-3.275574">
        <ele>1291.2</ele>
        <time>2021-12-12T11:51:46Z</time>
      </trkpt>
      <trkpt lat="37.234722" lon="-3.275568">
        <ele>1291.2</ele>
        <time>2021-12-12T11:58:59Z</time>
      </trkpt>
      <trkpt lat="37.234730" lon="-3.275549">
        <ele>1290.2</ele>
        <time>2021-12-12T12:08:52Z</time>
      </trkpt>
      <trkpt lat="37.234823" lon="-3.275533">
        <ele>1290.7</ele>
        <time>2021-12-12T12:10:56Z</time>
      </trkpt>
      <trkpt lat="37.234705" lon="-3.275568">
        <ele>1289.3</ele>
        <time>2021-12-12T12:12:58Z</time>
      </trkpt>
      <trkpt lat="37.234514" lon="-3.275507">
        <ele>1290.7</ele>
        <time>2021-12-12T12:14:12Z</time>
      </trkpt>
      <trkpt lat="37.234512" lon="-3.275294">
        <ele>1295.0</ele>
        <time>2021-12-12T12:15:12Z</time>
      </trkpt>
      <trkpt lat="37.234651" lon="-3.275313">
        <ele>1294.1</ele>
        <time>2021-12-12T12:15:46Z</time>
      </trkpt>
      <trkpt lat="37.234722" lon="-3.275431">
        <ele>1292.6</ele>
        <time>2021-12-12T12:17:17Z</time>
      </trkpt>
      <trkpt lat="37.234637" lon="-3.275288">
        <ele>1292.6</ele>
        <time>2021-12-12T12:18:24Z</time>
      </trkpt>
      <trkpt lat="37.234584" lon="-3.275110">
        <ele>1295.5</ele>
        <time>2021-12-12T12:18:49Z</time>
      </trkpt>
      <trkpt lat="37.234634" lon="-3.275066">
        <ele>1295.0</ele>
        <time>2021-12-12T12:19:41Z</time>
      </trkpt>
      <trkpt lat="37.234683" lon="-3.275118">
        <ele>1296.5</ele>
        <time>2021-12-12T12:26:35Z</time>
      </trkpt>
      <trkpt lat="37.234837" lon="-3.275106">
        <ele>1293.1</ele>
        <time>2021-12-12T12:26:48Z</time>
      </trkpt>
      <trkpt lat="37.234862" lon="-3.275085">
        <ele>1291.7</ele>
        <time>2021-12-12T12:27:19Z</time>
      </trkpt>
      <trkpt lat="37.234869" lon="-3.274878">
        <ele>1288.3</ele>
        <time>2021-12-12T12:27:37Z</time>
      </trkpt>
      <trkpt lat="37.234825" lon="-3.274644">
        <ele>1287.3</ele>
        <time>2021-12-12T12:27:54Z</time>
      </trkpt>
      <trkpt lat="37.234757" lon="-3.274437">
        <ele>1287.3</ele>
        <time>2021-12-12T12:28:28Z</time>
      </trkpt>
      <trkpt lat="37.234669" lon="-3.274225">
        <ele>1287.3</ele>
        <time>2021-12-12T12:28:44Z</time>
      </trkpt>
      <trkpt lat="37.234659" lon="-3.273999">
        <ele>1287.8</ele>
        <time>2021-12-12T12:29:00Z</time>
      </trkpt>
      <trkpt lat="37.234709" lon="-3.273804">
        <ele>1288.3</ele>
        <time>2021-12-12T12:29:23Z</time>
      </trkpt>
      <trkpt lat="37.234717" lon="-3.273573">
        <ele>1289.7</ele>
        <time>2021-12-12T12:29:40Z</time>
      </trkpt>
      <trkpt lat="37.234869" lon="-3.273438">
        <ele>1289.7</ele>
        <time>2021-12-12T12:29:58Z</time>
      </trkpt>
      <trkpt lat="37.234955" lon="-3.273236">
        <ele>1289.3</ele>
        <time>2021-12-12T12:30:15Z</time>
      </trkpt>
      <trkpt lat="37.234960" lon="-3.272994">
        <ele>1287.3</ele>
        <time>2021-12-12T12:30:31Z</time>
      </trkpt>
      <trkpt lat="37.234978" lon="-3.272763">
        <ele>1286.4</ele>
        <time>2021-12-12T12:30:46Z</time>
      </trkpt>
      <trkpt lat="37.235059" lon="-3.272546">
        <ele>1284.9</ele>
        <time>2021-12-12T12:31:00Z</time>
      </trkpt>
      <trkpt lat="37.235180" lon="-3.272373">
        <ele>1284.0</ele>
        <time>2021-12-12T12:31:14Z</time>
      </trkpt>
      <trkpt lat="37.235268" lon="-3.272180">
        <ele>1281.6</ele>
        <time>2021-12-12T12:31:27Z</time>
      </trkpt>
      <trkpt lat="37.235319" lon="-3.271958">
        <ele>1281.6</ele>
        <time>2021-12-12T12:31:41Z</time>
      </trkpt>
      <trkpt lat="37.235357" lon="-3.271726">
        <ele>1280.1</ele>
        <time>2021-12-12T12:31:56Z</time>
      </trkpt>
      <trkpt lat="37.235256" lon="-3.271653">
        <ele>1277.2</ele>
        <time>2021-12-12T12:32:17Z</time>
      </trkpt>
      <trkpt lat="37.235078" lon="-3.271771">
        <ele>1279.2</ele>
        <time>2021-12-12T12:32:33Z</time>
      </trkpt>
      <trkpt lat="37.234901" lon="-3.271869">
        <ele>1273.9</ele>
        <time>2021-12-12T12:32:48Z</time>
      </trkpt>
      <trkpt lat="37.234760" lon="-3.271765">
        <ele>1269.1</ele>
        <time>2021-12-12T12:33:07Z</time>
      </trkpt>
      <trkpt lat="37.234612" lon="-3.271585">
        <ele>1262.8</ele>
        <time>2021-12-12T12:33:30Z</time>
      </trkpt>
      <trkpt lat="37.234580" lon="-3.271438">
        <ele>1260.9</ele>
        <time>2021-12-12T12:33:57Z</time>
      </trkpt>
      <trkpt lat="37.234649" lon="-3.271197">
        <ele>1259.5</ele>
        <time>2021-12-12T12:34:18Z</time>
      </trkpt>
      <trkpt lat="37.234682" lon="-3.270991">
        <ele>1258.0</ele>
        <time>2021-12-12T12:34:49Z</time>
      </trkpt>
      <trkpt lat="37.234788" lon="-3.270782">
        <ele>1255.6</ele>
        <time>2021-12-12T12:35:05Z</time>
      </trkpt>
      <trkpt lat="37.234946" lon="-3.270590">
        <ele>1253.7</ele>
        <time>2021-12-12T12:35:22Z</time>
      </trkpt>
      <trkpt lat="37.235078" lon="-3.270395">
        <ele>1251.8</ele>
        <time>2021-12-12T12:35:38Z</time>
      </trkpt>
      <trkpt lat="37.235091" lon="-3.270171">
        <ele>1250.3</ele>
        <time>2021-12-12T12:35:55Z</time>
      </trkpt>
      <trkpt lat="37.235159" lon="-3.269940">
        <ele>1246.5</ele>
        <time>2021-12-12T12:36:14Z</time>
      </trkpt>
      <trkpt lat="37.235011" lon="-3.269788">
        <ele>1246.5</ele>
        <time>2021-12-12T12:36:46Z</time>
      </trkpt>
      <trkpt lat="37.235106" lon="-3.269588">
        <ele>1244.1</ele>
        <time>2021-12-12T12:37:09Z</time>
      </trkpt>
      <trkpt lat="37.235294" lon="-3.269429">
        <ele>1240.2</ele>
        <time>2021-12-12T12:37:51Z</time>
      </trkpt>
      <trkpt lat="37.235449" lon="-3.269246">
        <ele>1239.8</ele>
        <time>2021-12-12T12:38:20Z</time>
      </trkpt>
      <trkpt lat="37.235622" lon="-3.269068">
        <ele>1236.9</ele>
        <time>2021-12-12T12:38:57Z</time>
      </trkpt>
      <trkpt lat="37.235739" lon="-3.268845">
        <ele>1239.3</ele>
        <time>2021-12-12T12:39:25Z</time>
      </trkpt>
      <trkpt lat="37.235801" lon="-3.268611">
        <ele>1240.7</ele>
        <time>2021-12-12T12:39:58Z</time>
      </trkpt>
      <trkpt lat="37.235855" lon="-3.268388">
        <ele>1237.4</ele>
        <time>2021-12-12T12:40:30Z</time>
      </trkpt>
      <trkpt lat="37.235912" lon="-3.268125">
        <ele>1233.0</ele>
        <time>2021-12-12T12:41:12Z</time>
      </trkpt>
      <trkpt lat="37.235961" lon="-3.267900">
        <ele>1229.7</ele>
        <time>2021-12-12T12:41:34Z</time>
      </trkpt>
      <trkpt lat="37.236128" lon="-3.267706">
        <ele>1229.2</ele>
        <time>2021-12-12T12:42:02Z</time>
      </trkpt>
      <trkpt lat="37.236352" lon="-3.267778">
        <ele>1215.7</ele>
        <time>2021-12-12T12:43:18Z</time>
      </trkpt>
      <trkpt lat="37.236756" lon="-3.267557">
        <ele>1209.5</ele>
        <time>2021-12-12T12:46:22Z</time>
      </trkpt>
      <trkpt lat="37.236966" lon="-3.267439">
        <ele>1209.5</ele>
        <time>2021-12-12T12:46:49Z</time>
      </trkpt>
      <trkpt lat="37.237208" lon="-3.267214">
        <ele>1199.4</ele>
        <time>2021-12-12T12:49:03Z</time>
      </trkpt>
      <trkpt lat="37.237501" lon="-3.267124">
        <ele>1195.5</ele>
        <time>2021-12-12T12:50:06Z</time>
      </trkpt>
      <trkpt lat="37.237671" lon="-3.266935">
        <ele>1192.2</ele>
        <time>2021-12-12T12:51:25Z</time>
      </trkpt>
      <trkpt lat="37.237944" lon="-3.266805">
        <ele>1191.2</ele>
        <time>2021-12-12T12:52:07Z</time>
      </trkpt>
      <trkpt lat="37.238057" lon="-3.266566">
        <ele>1186.9</ele>
        <time>2021-12-12T12:53:56Z</time>
      </trkpt>
      <trkpt lat="37.238277" lon="-3.266175">
        <ele>1182.1</ele>
        <time>2021-12-12T12:54:44Z</time>
      </trkpt>
      <trkpt lat="37.238681" lon="-3.265706">
        <ele>1178.2</ele>
        <time>2021-12-12T12:56:29Z</time>
      </trkpt>
      <trkpt lat="37.238778" lon="-3.265493">
        <ele>1175.8</ele>
        <time>2021-12-12T12:56:58Z</time>
      </trkpt>
      <trkpt lat="37.238893" lon="-3.265360">
        <ele>1172.9</ele>
        <time>2021-12-12T12:57:38Z</time>
      </trkpt>
      <trkpt lat="37.239042" lon="-3.265212">
        <ele>1171.5</ele>
        <time>2021-12-12T12:58:16Z</time>
      </trkpt>
      <trkpt lat="37.239173" lon="-3.265148">
        <ele>1173.9</ele>
        <time>2021-12-12T12:59:28Z</time>
      </trkpt>
      <trkpt lat="37.239288" lon="-3.264972">
        <ele>1173.4</ele>
        <time>2021-12-12T12:59:42Z</time>
      </trkpt>
      <trkpt lat="37.239393" lon="-3.264753">
        <ele>1168.1</ele>
        <time>2021-12-12T12:59:57Z</time>
      </trkpt>
      <trkpt lat="37.239537" lon="-3.264583">
        <ele>1167.2</ele>
        <time>2021-12-12T13:00:13Z</time>
      </trkpt>
      <trkpt lat="37.239711" lon="-3.264468">
        <ele>1165.7</ele>
        <time>2021-12-12T13:00:30Z</time>
      </trkpt>
      <trkpt lat="37.239879" lon="-3.264355">
        <ele>1164.3</ele>
        <time>2021-12-12T13:00:46Z</time>
      </trkpt>
      <trkpt lat="37.240038" lon="-3.264229">
        <ele>1163.3</ele>
        <time>2021-12-12T13:01:01Z</time>
      </trkpt>
      <trkpt lat="37.240049" lon="-3.264062">
        <ele>1162.4</ele>
        <time>2021-12-12T13:01:36Z</time>
      </trkpt>
      <trkpt lat="37.239969" lon="-3.263886">
        <ele>1161.9</ele>
        <time>2021-12-12T13:01:44Z</time>
      </trkpt>
      <trkpt lat="37.239946" lon="-3.263668">
        <ele>1160.0</ele>
        <time>2021-12-12T13:01:56Z</time>
      </trkpt>
      <trkpt lat="37.239940" lon="-3.263449">
        <ele>1160.9</ele>
        <time>2021-12-12T13:02:11Z</time>
      </trkpt>
      <trkpt lat="37.240130" lon="-3.263355">
        <ele>1157.1</ele>
        <time>2021-12-12T13:02:43Z</time>
      </trkpt>
      <trkpt lat="37.240348" lon="-3.263436">
        <ele>1159.0</ele>
        <time>2021-12-12T13:03:30Z</time>
      </trkpt>
      <trkpt lat="37.240550" lon="-3.263414">
        <ele>1155.6</ele>
        <time>2021-12-12T13:03:49Z</time>
      </trkpt>
      <trkpt lat="37.240744" lon="-3.263399">
        <ele>1156.1</ele>
        <time>2021-12-12T13:04:17Z</time>
      </trkpt>
      <trkpt lat="37.240948" lon="-3.263325">
        <ele>1155.2</ele>
        <time>2021-12-12T13:04:38Z</time>
      </trkpt>
      <trkpt lat="37.241160" lon="-3.263319">
        <ele>1154.7</ele>
        <time>2021-12-12T13:04:56Z</time>
      </trkpt>
      <trkpt lat="37.241368" lon="-3.263332">
        <ele>1155.2</ele>
        <time>2021-12-12T13:05:15Z</time>
      </trkpt>
      <trkpt lat="37.241583" lon="-3.263324">
        <ele>1154.7</ele>
        <time>2021-12-12T13:05:35Z</time>
      </trkpt>
      <trkpt lat="37.241793" lon="-3.263301">
        <ele>1154.2</ele>
        <time>2021-12-12T13:05:51Z</time>
      </trkpt>
      <trkpt lat="37.241991" lon="-3.263275">
        <ele>1152.3</ele>
        <time>2021-12-12T13:06:08Z</time>
      </trkpt>
      <trkpt lat="37.242192" lon="-3.263228">
        <ele>1151.8</ele>
        <time>2021-12-12T13:06:27Z</time>
      </trkpt>
      <trkpt lat="37.242377" lon="-3.263133">
        <ele>1150.4</ele>
        <time>2021-12-12T13:06:42Z</time>
      </trkpt>
      <trkpt lat="37.242542" lon="-3.263022">
        <ele>1149.9</ele>
        <time>2021-12-12T13:06:57Z</time>
      </trkpt>
      <trkpt lat="37.242674" lon="-3.262860">
        <ele>1148.9</ele>
        <time>2021-12-12T13:07:13Z</time>
      </trkpt>
      <trkpt lat="37.242772" lon="-3.262662">
        <ele>1148.4</ele>
        <time>2021-12-12T13:07:28Z</time>
      </trkpt>
      <trkpt lat="37.242859" lon="-3.262439">
        <ele>1147.5</ele>
        <time>2021-12-12T13:07:45Z</time>
      </trkpt>
      <trkpt lat="37.243013" lon="-3.262291">
        <ele>1146.5</ele>
        <time>2021-12-12T13:08:05Z</time>
      </trkpt>
      <trkpt lat="37.242930" lon="-3.262116">
        <ele>1145.1</ele>
        <time>2021-12-12T13:08:28Z</time>
      </trkpt>
      <trkpt lat="37.243048" lon="-3.261932">
        <ele>1144.1</ele>
        <time>2021-12-12T13:09:06Z</time>
      </trkpt>
      <trkpt lat="37.242992" lon="-3.261694">
        <ele>1143.6</ele>
        <time>2021-12-12T13:09:51Z</time>
      </trkpt>
      <trkpt lat="37.243135" lon="-3.261823">
        <ele>1143.6</ele>
        <time>2021-12-12T13:10:14Z</time>
      </trkpt>
      <trkpt lat="37.243224" lon="-3.262022">
        <ele>1143.6</ele>
        <time>2021-12-12T13:10:33Z</time>
      </trkpt>
      <trkpt lat="37.243066" lon="-3.261689">
        <ele>1144.1</ele>
        <time>2021-12-12T13:10:42Z</time>
      </trkpt>
      <trkpt lat="37.243268" lon="-3.261938">
        <ele>1143.1</ele>
        <time>2021-12-12T13:11:27Z</time>
      </trkpt>
      <trkpt lat="37.243079" lon="-3.261733">
        <ele>1143.6</ele>
        <time>2021-12-12T13:11:34Z</time>
      </trkpt>
      <trkpt lat="37.243528" lon="-3.261895">
        <ele>1143.1</ele>
        <time>2021-12-12T13:11:59Z</time>
      </trkpt>
      <trkpt lat="37.243180" lon="-3.261783">
        <ele>1143.6</ele>
        <time>2021-12-12T13:12:16Z</time>
      </trkpt>
      <trkpt lat="37.243074" lon="-3.261812">
        <ele>1144.6</ele>
        <time>2021-12-12T13:12:51Z</time>
      </trkpt>
      <trkpt lat="37.243132" lon="-3.261817">
        <ele>1144.1</ele>
        <time>2021-12-12T13:13:15Z</time>
      </trkpt>
      <trkpt lat="37.243100" lon="-3.261967">
        <ele>1144.6</ele>
        <time>2021-12-12T13:14:12Z</time>
      </trkpt>
      <trkpt lat="37.243129" lon="-3.261897">
        <ele>1144.6</ele>
        <time>2021-12-12T13:15:50Z</time>
      </trkpt>
      <trkpt lat="37.242958" lon="-3.262109">
        <ele>1145.5</ele>
        <time>2021-12-12T13:16:36Z</time>
      </trkpt>
      <trkpt lat="37.243084" lon="-3.262299">
        <ele>1145.1</ele>
        <time>2021-12-12T13:17:00Z</time>
      </trkpt>
      <trkpt lat="37.243305" lon="-3.262369">
        <ele>1147.5</ele>
        <time>2021-12-12T13:18:04Z</time>
      </trkpt>
      <trkpt lat="37.243527" lon="-3.262338">
        <ele>1148.4</ele>
        <time>2021-12-12T13:18:20Z</time>
      </trkpt>
      <trkpt lat="37.243721" lon="-3.262274">
        <ele>1149.9</ele>
        <time>2021-12-12T13:18:36Z</time>
      </trkpt>
      <trkpt lat="37.243908" lon="-3.262204">
        <ele>1151.3</ele>
        <time>2021-12-12T13:18:51Z</time>
      </trkpt>
      <trkpt lat="37.244083" lon="-3.262104">
        <ele>1151.8</ele>
        <time>2021-12-12T13:19:07Z</time>
      </trkpt>
      <trkpt lat="37.244268" lon="-3.262028">
        <ele>1153.2</ele>
        <time>2021-12-12T13:19:22Z</time>
      </trkpt>
      <trkpt lat="37.244451" lon="-3.261969">
        <ele>1153.7</ele>
        <time>2021-12-12T13:19:36Z</time>
      </trkpt>
      <trkpt lat="37.244637" lon="-3.261923">
        <ele>1155.2</ele>
        <time>2021-12-12T13:19:54Z</time>
      </trkpt>
      <trkpt lat="37.244824" lon="-3.261884">
        <ele>1156.1</ele>
        <time>2021-12-12T13:20:08Z</time>
      </trkpt>
      <trkpt lat="37.245022" lon="-3.261866">
        <ele>1157.6</ele>
        <time>2021-12-12T13:20:22Z</time>
      </trkpt>
      <trkpt lat="37.245209" lon="-3.261809">
        <ele>1158.5</ele>
        <time>2021-12-12T13:20:37Z</time>
      </trkpt>
      <trkpt lat="37.245388" lon="-3.261755">
        <ele>1158.0</ele>
        <time>2021-12-12T13:20:51Z</time>
      </trkpt>
      <trkpt lat="37.245589" lon="-3.261762">
        <ele>1158.0</ele>
        <time>2021-12-12T13:21:04Z</time>
      </trkpt>
      <trkpt lat="37.245786" lon="-3.261807">
        <ele>1159.0</ele>
        <time>2021-12-12T13:21:19Z</time>
      </trkpt>
      <trkpt lat="37.245975" lon="-3.261869">
        <ele>1159.5</ele>
        <time>2021-12-12T13:21:33Z</time>
      </trkpt>
      <trkpt lat="37.246162" lon="-3.261933">
        <ele>1160.9</ele>
        <time>2021-12-12T13:21:47Z</time>
      </trkpt>
      <trkpt lat="37.246348" lon="-3.262053">
        <ele>1161.4</ele>
        <time>2021-12-12T13:22:02Z</time>
      </trkpt>
      <trkpt lat="37.246535" lon="-3.262091">
        <ele>1161.4</ele>
        <time>2021-12-12T13:22:17Z</time>
      </trkpt>
      <trkpt lat="37.246712" lon="-3.262206">
        <ele>1161.9</ele>
        <time>2021-12-12T13:22:31Z</time>
      </trkpt>
      <trkpt lat="37.246852" lon="-3.262382">
        <ele>1163.3</ele>
        <time>2021-12-12T13:22:46Z</time>
      </trkpt>
      <trkpt lat="37.246969" lon="-3.262615">
        <ele>1164.8</ele>
        <time>2021-12-12T13:23:03Z</time>
      </trkpt>
      <trkpt lat="37.247072" lon="-3.262830">
        <ele>1168.1</ele>
        <time>2021-12-12T13:23:18Z</time>
      </trkpt>
      <trkpt lat="37.247175" lon="-3.263027">
        <ele>1170.5</ele>
        <time>2021-12-12T13:23:33Z</time>
      </trkpt>
      <trkpt lat="37.247292" lon="-3.263220">
        <ele>1171.0</ele>
        <time>2021-12-12T13:23:48Z</time>
      </trkpt>
      <trkpt lat="37.247435" lon="-3.263355">
        <ele>1170.5</ele>
        <time>2021-12-12T13:24:01Z</time>
      </trkpt>
      <trkpt lat="37.247580" lon="-3.263496">
        <ele>1170.5</ele>
        <time>2021-12-12T13:24:14Z</time>
      </trkpt>
      <trkpt lat="37.247776" lon="-3.263560">
        <ele>1170.1</ele>
        <time>2021-12-12T13:24:29Z</time>
      </trkpt>
      <trkpt lat="37.247969" lon="-3.263583">
        <ele>1171.0</ele>
        <time>2021-12-12T13:24:45Z</time>
      </trkpt>
      <trkpt lat="37.248148" lon="-3.263708">
        <ele>1172.5</ele>
        <time>2021-12-12T13:25:01Z</time>
      </trkpt>
      <trkpt lat="37.248295" lon="-3.263871">
        <ele>1173.4</ele>
        <time>2021-12-12T13:25:16Z</time>
      </trkpt>
      <trkpt lat="37.248403" lon="-3.264071">
        <ele>1174.9</ele>
        <time>2021-12-12T13:25:31Z</time>
      </trkpt>
      <trkpt lat="37.248506" lon="-3.264278">
        <ele>1175.3</ele>
        <time>2021-12-12T13:25:45Z</time>
      </trkpt>
      <trkpt lat="37.248619" lon="-3.264466">
        <ele>1175.3</ele>
        <time>2021-12-12T13:25:58Z</time>
      </trkpt>
      <trkpt lat="37.248727" lon="-3.264661">
        <ele>1174.4</ele>
        <time>2021-12-12T13:26:12Z</time>
      </trkpt>
      <trkpt lat="37.248798" lon="-3.264880">
        <ele>1173.4</ele>
        <time>2021-12-12T13:26:26Z</time>
      </trkpt>
      <trkpt lat="37.248859" lon="-3.265101">
        <ele>1171.5</ele>
        <time>2021-12-12T13:26:57Z</time>
      </trkpt>
      <trkpt lat="37.248891" lon="-3.265341">
        <ele>1168.6</ele>
        <time>2021-12-12T13:27:11Z</time>
      </trkpt>
      <trkpt lat="37.248953" lon="-3.265578">
        <ele>1169.6</ele>
        <time>2021-12-12T13:27:26Z</time>
      </trkpt>
      <trkpt lat="37.249086" lon="-3.265748">
        <ele>1168.1</ele>
        <time>2021-12-12T13:27:39Z</time>
      </trkpt>
      <trkpt lat="37.249206" lon="-3.265930">
        <ele>1167.7</ele>
        <time>2021-12-12T13:27:52Z</time>
      </trkpt>
      <trkpt lat="37.249330" lon="-3.266123">
        <ele>1167.7</ele>
        <time>2021-12-12T13:28:05Z</time>
      </trkpt>
      <trkpt lat="37.249445" lon="-3.266327">
        <ele>1167.7</ele>
        <time>2021-12-12T13:28:18Z</time>
      </trkpt>
      <trkpt lat="37.249543" lon="-3.266546">
        <ele>1167.7</ele>
        <time>2021-12-12T13:28:32Z</time>
      </trkpt>
      <trkpt lat="37.249661" lon="-3.266774">
        <ele>1169.1</ele>
        <time>2021-12-12T13:28:46Z</time>
      </trkpt>
      <trkpt lat="37.249746" lon="-3.266997">
        <ele>1170.5</ele>
        <time>2021-12-12T13:29:01Z</time>
      </trkpt>
      <trkpt lat="37.249861" lon="-3.267220">
        <ele>1172.9</ele>
        <time>2021-12-12T13:29:18Z</time>
      </trkpt>
      <trkpt lat="37.249957" lon="-3.267450">
        <ele>1175.3</ele>
        <time>2021-12-12T13:29:33Z</time>
      </trkpt>
      <trkpt lat="37.250064" lon="-3.267663">
        <ele>1175.8</ele>
        <time>2021-12-12T13:29:47Z</time>
      </trkpt>
      <trkpt lat="37.250180" lon="-3.267874">
        <ele>1178.7</ele>
        <time>2021-12-12T13:30:02Z</time>
      </trkpt>
      <trkpt lat="37.250317" lon="-3.268053">
        <ele>1182.1</ele>
        <time>2021-12-12T13:30:17Z</time>
      </trkpt>
      <trkpt lat="37.250462" lon="-3.268214">
        <ele>1184.5</ele>
        <time>2021-12-12T13:30:32Z</time>
      </trkpt>
      <trkpt lat="37.250594" lon="-3.268402">
        <ele>1184.0</ele>
        <time>2021-12-12T13:30:47Z</time>
      </trkpt>
      <trkpt lat="37.250713" lon="-3.268604">
        <ele>1185.0</ele>
        <time>2021-12-12T13:31:02Z</time>
      </trkpt>
      <trkpt lat="37.250836" lon="-3.268792">
        <ele>1186.9</ele>
        <time>2021-12-12T13:31:16Z</time>
      </trkpt>
      <trkpt lat="37.250953" lon="-3.268983">
        <ele>1186.9</ele>
        <time>2021-12-12T13:31:30Z</time>
      </trkpt>
      <trkpt lat="37.251063" lon="-3.269176">
        <ele>1188.3</ele>
        <time>2021-12-12T13:31:44Z</time>
      </trkpt>
      <trkpt lat="37.251177" lon="-3.269372">
        <ele>1188.3</ele>
        <time>2021-12-12T13:31:58Z</time>
      </trkpt>
      <trkpt lat="37.251281" lon="-3.269569">
        <ele>1189.3</ele>
        <time>2021-12-12T13:32:11Z</time>
      </trkpt>
      <trkpt lat="37.251372" lon="-3.269771">
        <ele>1190.2</ele>
        <time>2021-12-12T13:32:24Z</time>
      </trkpt>
      <trkpt lat="37.251462" lon="-3.269985">
        <ele>1189.8</ele>
        <time>2021-12-12T13:32:38Z</time>
      </trkpt>
      <trkpt lat="37.251551" lon="-3.270196">
        <ele>1189.3</ele>
        <time>2021-12-12T13:32:52Z</time>
      </trkpt>
      <trkpt lat="37.251668" lon="-3.270383">
        <ele>1190.2</ele>
        <time>2021-12-12T13:33:06Z</time>
      </trkpt>
      <trkpt lat="37.251807" lon="-3.270560">
        <ele>1190.7</ele>
        <time>2021-12-12T13:33:20Z</time>
      </trkpt>
      <trkpt lat="37.251968" lon="-3.270715">
        <ele>1190.7</ele>
        <time>2021-12-12T13:33:34Z</time>
      </trkpt>
      <trkpt lat="37.252123" lon="-3.270861">
        <ele>1191.2</ele>
        <time>2021-12-12T13:33:47Z</time>
      </trkpt>
      <trkpt lat="37.252275" lon="-3.271012">
        <ele>1191.7</ele>
        <time>2021-12-12T13:34:00Z</time>
      </trkpt>
      <trkpt lat="37.252432" lon="-3.271132">
        <ele>1192.7</ele>
        <time>2021-12-12T13:34:13Z</time>
      </trkpt>
      <trkpt lat="37.252609" lon="-3.271237">
        <ele>1193.1</ele>
        <time>2021-12-12T13:34:27Z</time>
      </trkpt>
      <trkpt lat="37.252781" lon="-3.271341">
        <ele>1193.1</ele>
        <time>2021-12-12T13:34:41Z</time>
      </trkpt>
      <trkpt lat="37.252966" lon="-3.271422">
        <ele>1195.5</ele>
        <time>2021-12-12T13:34:56Z</time>
      </trkpt>
      <trkpt lat="37.253148" lon="-3.271517">
        <ele>1196.0</ele>
        <time>2021-12-12T13:35:11Z</time>
      </trkpt>
      <trkpt lat="37.253340" lon="-3.271579">
        <ele>1197.0</ele>
        <time>2021-12-12T13:35:25Z</time>
      </trkpt>
      <trkpt lat="37.253531" lon="-3.271666">
        <ele>1197.0</ele>
        <time>2021-12-12T13:35:39Z</time>
      </trkpt>
      <trkpt lat="37.253711" lon="-3.271772">
        <ele>1197.5</ele>
        <time>2021-12-12T13:35:53Z</time>
      </trkpt>
      <trkpt lat="37.253902" lon="-3.271878">
        <ele>1197.5</ele>
        <time>2021-12-12T13:36:08Z</time>
      </trkpt>
      <trkpt lat="37.254109" lon="-3.271989">
        <ele>1197.0</ele>
        <time>2021-12-12T13:36:24Z</time>
      </trkpt>
      <trkpt lat="37.254310" lon="-3.272092">
        <ele>1197.0</ele>
        <time>2021-12-12T13:36:39Z</time>
      </trkpt>
      <trkpt lat="37.254510" lon="-3.272168">
        <ele>1197.0</ele>
        <time>2021-12-12T13:36:55Z</time>
      </trkpt>
      <trkpt lat="37.254732" lon="-3.272240">
        <ele>1196.0</ele>
        <time>2021-12-12T13:37:10Z</time>
      </trkpt>
      <trkpt lat="37.254877" lon="-3.272408">
        <ele>1195.5</ele>
        <time>2021-12-12T13:37:24Z</time>
      </trkpt>
      <trkpt lat="37.255017" lon="-3.272596">
        <ele>1195.5</ele>
        <time>2021-12-12T13:37:39Z</time>
      </trkpt>
      <trkpt lat="37.255187" lon="-3.272742">
        <ele>1195.1</ele>
        <time>2021-12-12T13:37:54Z</time>
      </trkpt>
      <trkpt lat="37.255348" lon="-3.272916">
        <ele>1194.6</ele>
        <time>2021-12-12T13:38:09Z</time>
      </trkpt>
      <trkpt lat="37.255488" lon="-3.273145">
        <ele>1193.6</ele>
        <time>2021-12-12T13:38:26Z</time>
      </trkpt>
      <trkpt lat="37.255621" lon="-3.273387">
        <ele>1192.2</ele>
        <time>2021-12-12T13:38:44Z</time>
      </trkpt>
      <trkpt lat="37.255742" lon="-3.273639">
        <ele>1189.3</ele>
        <time>2021-12-12T13:39:01Z</time>
      </trkpt>
      <trkpt lat="37.255928" lon="-3.273841">
        <ele>1185.4</ele>
        <time>2021-12-12T13:39:19Z</time>
      </trkpt>
      <trkpt lat="37.256095" lon="-3.274036">
        <ele>1182.1</ele>
        <time>2021-12-12T13:39:35Z</time>
      </trkpt>
      <trkpt lat="37.256264" lon="-3.274238">
        <ele>1179.2</ele>
        <time>2021-12-12T13:39:50Z</time>
      </trkpt>
      <trkpt lat="37.256428" lon="-3.274455">
        <ele>1178.7</ele>
        <time>2021-12-12T13:40:07Z</time>
      </trkpt>
      <trkpt lat="37.256582" lon="-3.274634">
        <ele>1178.2</ele>
        <time>2021-12-12T13:40:21Z</time>
      </trkpt>
      <trkpt lat="37.256736" lon="-3.274787">
        <ele>1178.2</ele>
        <time>2021-12-12T13:40:34Z</time>
      </trkpt>
      <trkpt lat="37.256891" lon="-3.274951">
        <ele>1176.3</ele>
        <time>2021-12-12T13:40:49Z</time>
      </trkpt>
      <trkpt lat="37.257091" lon="-3.274984">
        <ele>1174.9</ele>
        <time>2021-12-12T13:41:04Z</time>
      </trkpt>
      <trkpt lat="37.257321" lon="-3.274932">
        <ele>1173.4</ele>
        <time>2021-12-12T13:41:20Z</time>
      </trkpt>
      <trkpt lat="37.257559" lon="-3.274920">
        <ele>1170.5</ele>
        <time>2021-12-12T13:41:36Z</time>
      </trkpt>
      <trkpt lat="37.257812" lon="-3.274892">
        <ele>1168.6</ele>
        <time>2021-12-12T13:41:58Z</time>
      </trkpt>
      <trkpt lat="37.258044" lon="-3.274824">
        <ele>1167.2</ele>
        <time>2021-12-12T13:42:15Z</time>
      </trkpt>
      <trkpt lat="37.258272" lon="-3.274836">
        <ele>1167.2</ele>
        <time>2021-12-12T13:42:31Z</time>
      </trkpt>
      <trkpt lat="37.258480" lon="-3.274935">
        <ele>1167.2</ele>
        <time>2021-12-12T13:42:47Z</time>
      </trkpt>
      <trkpt lat="37.258667" lon="-3.275034">
        <ele>1166.7</ele>
        <time>2021-12-12T13:43:03Z</time>
      </trkpt>
      <trkpt lat="37.258860" lon="-3.275112">
        <ele>1167.2</ele>
        <time>2021-12-12T13:43:17Z</time>
      </trkpt>
      <trkpt lat="37.259049" lon="-3.275181">
        <ele>1168.6</ele>
        <time>2021-12-12T13:43:31Z</time>
      </trkpt>
      <trkpt lat="37.259232" lon="-3.275254">
        <ele>1168.6</ele>
        <time>2021-12-12T13:43:45Z</time>
      </trkpt>
      <trkpt lat="37.259413" lon="-3.275342">
        <ele>1169.1</ele>
        <time>2021-12-12T13:44:00Z</time>
      </trkpt>
      <trkpt lat="37.259602" lon="-3.275415">
        <ele>1170.5</ele>
        <time>2021-12-12T13:44:15Z</time>
      </trkpt>
      <trkpt lat="37.259791" lon="-3.275482">
        <ele>1170.5</ele>
        <time>2021-12-12T13:44:30Z</time>
      </trkpt>
      <trkpt lat="37.259987" lon="-3.275528">
        <ele>1171.5</ele>
        <time>2021-12-12T13:44:45Z</time>
      </trkpt>
      <trkpt lat="37.260143" lon="-3.275526">
        <ele>1170.5</ele>
        <time>2021-12-12T13:45:22Z</time>
      </trkpt>
      <trkpt lat="37.260150" lon="-3.275524">
        <ele>1172.9</ele>
        <time>2021-12-12T13:45:28Z</time>
      </trkpt>
    </trkseg>
  </trk>
</gpx>
